UA1172 / N672UA 7700 Squawk Report (24th of September, 2021)

Aircraft B763 Reg No. N672UA Age 21 years old
Model 767 Jet engines 2 First flight 12-12-99
Registered 23-12-99 Rollout N/A Delivered 22-12-99
Construction No. 30027 Line No. 0777 Series 322(ER)
ADSHEX A8E4E9 Airline name United Airlines Owner N/A
Airfield based Chicago O`Hare~IL~N First tracked N/A

Flight history for N672UA

Route Flight No Date Playback
Heathrow (LHR) - Washington Dulles International (IAD) UA919 2021-10-22 12:34:00
Washington Dulles International (IAD) - Heathrow (LHR) UA918 2021-10-22 05:39:00
Heathrow (LHR) - Washington Dulles International (IAD) UA919 2021-10-21 19:13:00
Newark Liberty Intl (EWR) - Heathrow (LHR) UA16 2021-10-21 09:03:00
Orlando Intl (MCO) - Newark Liberty Intl (EWR) UA1264 2021-10-15 15:26:00
Newark Liberty Intl (EWR) - Orlando Intl (MCO) UA2355 2021-10-14 23:14:00
Los Angeles Intl (LAX) - Newark Liberty Intl (EWR) UA1991 2021-10-14 18:47:00
Newark Liberty Intl (EWR) - Los Angeles Intl (LAX) UA621 2021-10-14 13:43:00
Kahului (OGG) - San Francisco Intl (SFO) UA1288 2021-10-12 23:39:00
Denver Intl (DEN) - George Bush Intercontinental (IAH) UA715 2021-10-09 19:30:00
Denver Intl (DEN) - Washington Dulles International (IAD) UA672 2021-10-08 02:31:00
Denver Intl (DEN) - Washington Dulles International (IAD) UA672 2021-10-07 20:15:00
Denver Intl (DEN) - Washington Dulles International (IAD) UA672 2021-10-06 21:01:00
Denver Intl (DEN) - Denver Intl (DEN) UA2689 2021-10-03 20:21:00
Denver Intl (DEN) - Denver Intl (DEN) UA2701 2021-10-01 22:07:00
Denver Intl (DEN) - Denver Intl (DEN) UA1172 2021-09-25 06:10:00
San Francisco Intl (SFO) - Newark Liberty Intl (EWR) UA213 2021-09-22 02:23:00
John F Kennedy Intl (JFK) - San Francisco Intl (SFO) UA523 2021-09-21 03:24:00
Los Angeles Intl (LAX) - John F Kennedy Intl (JFK) UA514 2021-09-20 19:37:00
Newark Liberty Intl (EWR) - Los Angeles Intl (LAX) UA621 2021-09-20 14:28:00
Time Lat Lon Altitude Heading Speed Vertical Rate
2021-09-24 22:41:55 GMT 39.856659 -104.675789 0 91 17 -32
2021-09-24 22:41:54 GMT 39.856670 -104.675987 0 91 17 -32
2021-09-24 22:41:52 GMT 39.856682 -104.676178 0 91 17 -32
2021-09-24 22:41:50 GMT 39.856682 -104.676277 0 90 17 -32
2021-09-24 22:41:49 GMT 39.856701 -104.676376 0 89 17 -32
2021-09-24 22:41:48 GMT 39.856701 -104.676491 0 88 17 -32
2021-09-24 22:41:47 GMT 39.856701 -104.676582 0 88 17 -32
2021-09-24 22:41:45 GMT 39.856689 -104.676773 0 88 18 -32
2021-09-24 22:41:44 GMT 39.856701 -104.676872 0 88 18 -32
2021-09-24 22:41:43 GMT 39.856689 -104.676964 0 89 18 -32
2021-09-24 22:41:41 GMT 39.856682 -104.677162 0 90 19 -32
2021-09-24 22:41:40 GMT 39.856670 -104.677322 0 91 18 -32
2021-09-24 22:41:38 GMT 39.856682 -104.677544 0 90 18 -32
2021-09-24 22:41:37 GMT 39.856689 -104.677650 0 89 17 -32
2021-09-24 22:41:35 GMT 39.856689 -104.677856 0 89 17 -32
2021-09-24 22:41:34 GMT 39.856689 -104.677963 0 89 18 -32
2021-09-24 22:41:33 GMT 39.856689 -104.678070 0 88 17 -32
2021-09-24 22:41:32 GMT 39.856682 -104.678299 0 89 17 -32
2021-09-24 22:41:30 GMT 39.856682 -104.678421 0 89 16 -32
2021-09-24 22:41:29 GMT 39.856682 -104.678520 0 89 16 -32
2021-09-24 22:41:27 GMT 39.856689 -104.678741 0 88 15 -32
2021-09-24 22:41:26 GMT 39.856689 -104.678848 0 88 14 -32
2021-09-24 22:41:25 GMT 39.856682 -104.678947 0 88 14 -32
2021-09-24 22:41:24 GMT 39.856682 -104.679138 0 88 12 -32
2021-09-24 22:41:21 GMT 39.856670 -104.679466 0 88 7 -32
2021-09-24 22:41:19 GMT 39.856670 -104.679520 0 88 7 -32
2021-09-24 22:41:17 GMT 39.856670 -104.679581 0 88 11 -32
2021-09-24 22:41:16 GMT 39.856670 -104.679619 0 89 14 -32
2021-09-24 22:41:15 GMT 39.856659 -104.679581 0 90 18 -32
2021-09-24 22:41:14 GMT 39.856659 -104.679672 0 90 19 -32
2021-09-24 22:41:12 GMT 39.856659 -104.679848 0 90 20 -32
2021-09-24 22:41:11 GMT 39.856659 -104.679962 0 91 21 -32
2021-09-24 22:41:09 GMT 39.856651 -104.680298 0 91 23 -32
2021-09-24 22:41:07 GMT 39.856628 -104.680443 0 95 29 -32
2021-09-24 22:41:05 GMT 39.856628 -104.680656 0 97 26 -32
2021-09-24 22:41:04 GMT 39.856651 -104.681091 0 106 17 -32
2021-09-24 22:41:02 GMT 39.856670 -104.681511 0 106 5 -32
2021-09-24 22:41:01 GMT 39.856701 -104.681458 0 101 9 -32
2021-09-24 22:40:59 GMT 39.856709 -104.681450 0 99 13 -32
2021-09-24 22:40:58 GMT 39.856731 -104.681549 0 98 13 -32
2021-09-24 22:40:57 GMT 39.856758 -104.681618 0 96 13 -32
2021-09-24 22:40:55 GMT 39.856800 -104.681732 0 93 14 -32
2021-09-24 22:40:54 GMT 39.856800 -104.681839 0 93 13 -32
2021-09-24 22:40:53 GMT 39.856819 -104.681931 0 92 13 -32
2021-09-24 22:40:52 GMT 39.856831 -104.682007 0 92 13 -32
2021-09-24 22:40:50 GMT 39.856838 -104.682190 0 93 12 -32
2021-09-24 22:40:49 GMT 39.856831 -104.682251 0 94 13 -32
2021-09-24 22:40:48 GMT 39.856819 -104.682320 0 94 13 -32
2021-09-24 22:40:47 GMT 39.856812 -104.682518 0 95 11 -32
2021-09-24 22:40:45 GMT 39.856831 -104.682610 0 93 11 -32
2021-09-24 22:40:44 GMT 39.856838 -104.682678 0 92 11 -32
2021-09-24 22:40:43 GMT 39.856869 -104.682831 0 87 10 -32
2021-09-24 22:40:41 GMT 39.856892 -104.682899 0 85 9 -32
2021-09-24 22:40:40 GMT 39.856892 -104.682961 0 85 9 -32
2021-09-24 22:40:38 GMT 39.856880 -104.683067 0 83 9 -32
2021-09-24 22:40:37 GMT 39.856892 -104.683151 0 81 8 -32
2021-09-24 22:40:36 GMT 39.856918 -104.683372 0 80 4 -32
2021-09-24 22:40:34 GMT 39.856899 -104.683319 0 82 7 -32
2021-09-24 22:40:33 GMT 39.856880 -104.683327 0 82 8 -32
2021-09-24 22:40:32 GMT 39.856892 -104.683350 0 82 10 -32
2021-09-24 22:40:30 GMT 39.856861 -104.683372 0 83 13 -32
2021-09-24 22:40:29 GMT 39.856861 -104.683449 0 82 13 -32
2021-09-24 22:40:27 GMT 39.856850 -104.683601 0 79 13 -32
2021-09-24 22:40:25 GMT 39.856838 -104.683746 0 73 13 -32
2021-09-24 22:40:24 GMT 39.856892 -104.683830 0 67 13 -32
2021-09-24 22:40:22 GMT 39.856892 -104.684021 0 67 11 -32
2021-09-24 22:40:21 GMT 39.856892 -104.684113 0 71 11 -32
2021-09-24 22:40:20 GMT 39.856838 -104.684036 0 79 16 -32
2021-09-24 22:40:19 GMT 39.856812 -104.684097 0 88 17 -32
2021-09-24 22:40:17 GMT 39.856750 -104.684227 0 106 19 -32
2021-09-24 22:40:16 GMT 39.856731 -104.684334 0 115 20 -32
2021-09-24 22:40:15 GMT 39.856770 -104.684532 0 127 20 -32
2021-09-24 22:40:13 GMT 39.856819 -104.684662 0 135 18 -32
2021-09-24 22:40:11 GMT 39.856930 -104.684921 0 171 13 -32
2021-09-24 22:40:10 GMT 39.857029 -104.685081 0 179 12 -32
2021-09-24 22:40:08 GMT 39.857059 -104.685097 0 180 13 -32
2021-09-24 22:40:07 GMT 39.857109 -104.685112 0 180 14 -32
2021-09-24 22:40:06 GMT 39.857208 -104.685089 0 179 15 -32
2021-09-24 22:40:04 GMT 39.857281 -104.685097 0 179 15 -32
2021-09-24 22:40:03 GMT 39.857342 -104.685097 0 179 16 -32
2021-09-24 22:40:02 GMT 39.857471 -104.685089 0 178 17 -32
2021-09-24 22:40:00 GMT 39.857552 -104.685089 0 178 17 -32
2021-09-24 22:39:59 GMT 39.857609 -104.685097 0 178 17 -32
2021-09-24 22:39:57 GMT 39.857769 -104.685120 0 181 17 -32
2021-09-24 22:39:56 GMT 39.857849 -104.685120 0 181 17 -32
2021-09-24 22:39:55 GMT 39.858009 -104.685120 0 180 18 -32
2021-09-24 22:39:52 GMT 39.858101 -104.685081 0 178 19 -32
2021-09-24 22:39:50 GMT 39.858200 -104.685097 0 179 19 -32
2021-09-24 22:39:49 GMT 39.858261 -104.685112 0 179 20 -32
2021-09-24 22:39:48 GMT 39.858341 -104.685112 0 179 21 -32
2021-09-24 22:39:47 GMT 39.858540 -104.685097 0 175 19 -32
2021-09-24 22:39:45 GMT 39.858620 -104.685120 0 181 20 -32
2021-09-24 22:39:43 GMT 39.858810 -104.685120 0 185 19 -32
2021-09-24 22:39:42 GMT 39.858898 -104.685089 0 181 19 -32
2021-09-24 22:39:41 GMT 39.859089 -104.685059 0 175 18 -32
2021-09-24 22:39:39 GMT 39.859161 -104.685089 0 181 19 -32
2021-09-24 22:39:38 GMT 39.859329 -104.685089 0 184 21 -32
2021-09-24 22:39:36 GMT 39.859421 -104.685051 0 174 21 -32
2021-09-24 22:39:35 GMT 39.859520 -104.685066 0 175 21 -32
2021-09-24 22:39:34 GMT 39.859619 -104.685081 0 178 20 -32
2021-09-24 22:39:33 GMT 39.859699 -104.685097 0 182 21 -32
2021-09-24 22:39:31 GMT 39.859890 -104.685066 0 177 23 -32
2021-09-24 22:39:30 GMT 39.860001 -104.685081 0 180 22 -32
2021-09-24 22:39:29 GMT 39.860111 -104.685081 0 180 21 -32
2021-09-24 22:39:27 GMT 39.860291 -104.685081 0 179 23 -32
2021-09-24 22:39:26 GMT 39.860390 -104.685089 0 181 24 -32
2021-09-24 22:39:25 GMT 39.860512 -104.685066 0 177 23 -32
2021-09-24 22:39:23 GMT 39.860741 -104.685089 0 181 20 -32
2021-09-24 22:39:22 GMT 39.860821 -104.685081 0 181 22 -32
2021-09-24 22:39:20 GMT 39.861019 -104.685066 0 183 23 -32
2021-09-24 22:39:18 GMT 39.861340 -104.685028 0 180 21 -32
2021-09-24 22:39:16 GMT 39.861431 -104.685013 0 176 21 -32
2021-09-24 22:39:15 GMT 39.861530 -104.685020 0 178 21 -32
2021-09-24 22:39:14 GMT 39.861721 -104.685028 0 178 21 -32
2021-09-24 22:39:12 GMT 39.861809 -104.685028 0 178 21 -32
2021-09-24 22:39:11 GMT 39.861912 -104.685028 0 178 22 -32
2021-09-24 22:39:09 GMT 39.862129 -104.685043 0 181 21 -32
2021-09-24 22:39:08 GMT 39.862209 -104.685043 0 180 22 -32
2021-09-24 22:39:07 GMT 39.862301 -104.685051 0 183 23 -32
2021-09-24 22:39:06 GMT 39.862419 -104.685028 0 181 22 -32
2021-09-24 22:39:04 GMT 39.862621 -104.685020 0 181 21 -32
2021-09-24 22:39:03 GMT 39.862720 -104.685028 0 181 21 -32
2021-09-24 22:39:02 GMT 39.862801 -104.685013 0 178 22 -32
2021-09-24 22:39:00 GMT 39.862999 -104.685013 0 177 21 -32
2021-09-24 22:38:59 GMT 39.863110 -104.685028 0 182 21 -32
2021-09-24 22:38:58 GMT 39.863209 -104.685020 0 179 20 -32
2021-09-24 22:38:56 GMT 39.863392 -104.685028 0 183 21 -32
2021-09-24 22:38:55 GMT 39.863480 -104.685020 0 181 21 -32
2021-09-24 22:38:53 GMT 39.863670 -104.685013 0 176 21 -32
2021-09-24 22:38:52 GMT 39.863762 -104.685013 0 175 21 -32
2021-09-24 22:38:51 GMT 39.863869 -104.685043 0 181 20 -32
2021-09-24 22:38:50 GMT 39.864071 -104.685043 0 183 18 -32
2021-09-24 22:38:48 GMT 39.864151 -104.685020 0 179 20 -32
2021-09-24 22:38:47 GMT 39.864231 -104.684998 0 174 21 -32
2021-09-24 22:38:45 GMT 39.864441 -104.685043 0 180 19 -32
2021-09-24 22:38:44 GMT 39.864498 -104.685043 0 181 23 -32
2021-09-24 22:38:43 GMT 39.864731 -104.685043 0 182 22 -32
2021-09-24 22:38:41 GMT 39.864830 -104.685051 0 186 21 -32
2021-09-24 22:38:40 GMT 39.864929 -104.685043 0 186 20 -32
2021-09-24 22:38:39 GMT 39.865028 -104.685013 0 182 20 -32
2021-09-24 22:38:37 GMT 39.865219 -104.685013 0 178 20 -32
2021-09-24 22:38:36 GMT 39.865299 -104.685028 0 183 21 -32
2021-09-24 22:38:35 GMT 39.865398 -104.685013 0 179 20 -32
2021-09-24 22:38:33 GMT 39.865589 -104.684998 0 176 19 -32
2021-09-24 22:38:32 GMT 39.865681 -104.685051 0 188 20 -32
2021-09-24 22:38:31 GMT 39.865742 -104.685020 0 182 22 -32
2021-09-24 22:38:30 GMT 39.865959 -104.684998 0 179 21 -32
2021-09-24 22:38:28 GMT 39.866070 -104.684998 0 179 18 -32
2021-09-24 22:38:26 GMT 39.866230 -104.685020 0 183 19 -32
2021-09-24 22:38:25 GMT 39.866310 -104.685020 0 183 19 -32
2021-09-24 22:38:24 GMT 39.866409 -104.684998 0 181 17 -32
2021-09-24 22:38:22 GMT 39.866638 -104.684990 0 179 18 -32
2021-09-24 22:38:20 GMT 39.866730 -104.684990 0 179 18 -32
2021-09-24 22:38:19 GMT 39.866810 -104.685013 0 182 18 -32
2021-09-24 22:38:17 GMT 39.866989 -104.684990 0 179 17 -32
2021-09-24 22:38:16 GMT 39.867069 -104.684990 0 179 16 -32
2021-09-24 22:38:15 GMT 39.867222 -104.684998 0 183 16 -32
2021-09-24 22:38:13 GMT 39.867378 -104.684990 0 175 16 -32
2021-09-24 22:38:10 GMT 39.867519 -104.685013 0 181 16 -32
2021-09-24 22:38:09 GMT 39.867580 -104.685020 0 186 17 -32
2021-09-24 22:38:08 GMT 39.867680 -104.684998 0 182 15 -32
2021-09-24 22:38:06 GMT 39.867821 -104.684998 0 185 17 -32
2021-09-24 22:38:05 GMT 39.867901 -104.684982 0 182 17 -32
2021-09-24 22:38:04 GMT 39.867970 -104.684967 0 178 18 -32
2021-09-24 22:38:02 GMT 39.868118 -104.684959 0 176 20 -32
2021-09-24 22:38:01 GMT 39.868198 -104.684982 0 177 21 -32
2021-09-24 22:37:59 GMT 39.868401 -104.684998 0 181 20 -32
2021-09-24 22:37:58 GMT 39.868511 -104.684967 0 174 17 -32
2021-09-24 22:37:57 GMT 39.868591 -104.685013 0 181 18 -32
2021-09-24 22:37:55 GMT 39.868752 -104.684990 0 179 19 -32
2021-09-24 22:37:54 GMT 39.868839 -104.684990 0 181 18 -32
2021-09-24 22:37:53 GMT 39.868919 -104.684998 0 182 18 -32
2021-09-24 22:37:52 GMT 39.868999 -104.684990 0 180 19 -32
2021-09-24 22:37:50 GMT 39.869171 -104.684990 0 182 18 -32
2021-09-24 22:37:49 GMT 39.869270 -104.684967 0 179 17 -32
2021-09-24 22:37:47 GMT 39.869431 -104.684967 0 181 17 -32
2021-09-24 22:37:46 GMT 39.869579 -104.684959 0 179 17 -32
2021-09-24 22:37:44 GMT 39.869640 -104.684959 0 180 18 -32
2021-09-24 22:37:42 GMT 39.869831 -104.684959 0 180 16 -32
2021-09-24 22:37:41 GMT 39.869900 -104.684952 0 177 16 -32
2021-09-24 22:37:40 GMT 39.870029 -104.684967 0 179 17 -32
2021-09-24 22:37:38 GMT 39.870121 -104.684967 0 179 17 -32
2021-09-24 22:37:37 GMT 39.870201 -104.684967 0 177 16 -32
2021-09-24 22:37:36 GMT 39.870258 -104.684982 0 182 17 -32
2021-09-24 22:37:34 GMT 39.870441 -104.684967 0 185 14 -32
2021-09-24 22:37:33 GMT 39.870522 -104.684952 0 181 13 -32
2021-09-24 22:37:32 GMT 39.870571 -104.684959 0 183 15 -32
2021-09-24 22:37:30 GMT 39.870701 -104.684937 0 175 16 -32
2021-09-24 22:37:29 GMT 39.870762 -104.684937 0 173 16 -32
2021-09-24 22:37:28 GMT 39.870838 -104.684937 0 169 15 -32
2021-09-24 22:37:26 GMT 39.870979 -104.684967 0 168 15 -32
2021-09-24 22:37:24 GMT 39.871132 -104.684990 0 156 12 -32
2021-09-24 22:37:23 GMT 39.871189 -104.685028 0 158 12 -32
2021-09-24 22:37:22 GMT 39.871231 -104.685043 0 158 13 -32
2021-09-24 22:37:20 GMT 39.871342 -104.685089 0 154 13 -32
2021-09-24 22:37:19 GMT 39.871399 -104.685120 0 153 14 -32
2021-09-24 22:37:18 GMT 39.871471 -104.685181 0 155 12 -32
2021-09-24 22:37:17 GMT 39.871521 -104.685204 0 154 13 -32
2021-09-24 22:37:15 GMT 39.871620 -104.685272 0 152 16 -32
2021-09-24 22:37:14 GMT 39.871761 -104.685349 0 150 18 -32
2021-09-24 22:37:12 GMT 39.871811 -104.685387 0 151 21 -32
2021-09-24 22:37:11 GMT 39.871891 -104.685417 0 146 23 -32
2021-09-24 22:37:09 GMT 39.872070 -104.685593 0 151 25 -32
2021-09-24 22:37:08 GMT 39.872162 -104.685654 0 151 27 -32
2021-09-24 22:37:06 GMT 39.872372 -104.685806 0 152 27 -32
2021-09-24 22:37:05 GMT 39.872471 -104.685852 0 150 29 -32
2021-09-24 22:37:04 GMT 39.872589 -104.685944 0 149 29 -32
2021-09-24 22:37:02 GMT 39.872822 -104.686096 0 149 30 -32
2021-09-24 22:37:01 GMT 39.872929 -104.686203 0 151 31 -32
2021-09-24 22:37:00 GMT 39.873199 -104.686409 0 158 29 -32
2021-09-24 22:36:58 GMT 39.873341 -104.686508 0 162 29 -32
2021-09-24 22:36:57 GMT 39.873451 -104.686523 0 159 31 -32
2021-09-24 22:36:55 GMT 39.873699 -104.686691 0 168 34 -32
2021-09-24 22:36:54 GMT 39.873852 -104.686729 0 168 36 -32
2021-09-24 22:36:53 GMT 39.874031 -104.686760 0 167 33 -32
2021-09-24 22:36:52 GMT 39.874191 -104.686829 0 171 33 -32
2021-09-24 22:36:50 GMT 39.874470 -104.686890 0 173 38 -32
2021-09-24 22:36:49 GMT 39.874649 -104.686974 0 178 39 -32
2021-09-24 22:36:48 GMT 39.874821 -104.686974 0 177 41 -32
2021-09-24 22:36:47 GMT 39.875031 -104.686974 0 176 39 -32
2021-09-24 22:36:45 GMT 39.875389 -104.686981 0 176 44 -32
2021-09-24 22:36:44 GMT 39.875801 -104.687027 0 180 49 64
2021-09-24 22:36:43 GMT 39.876019 -104.687019 0 178 51 64
2021-09-24 22:36:41 GMT 39.876282 -104.687027 0 180 51 64
2021-09-24 22:36:40 GMT 39.876499 -104.687057 0 182 55 64
2021-09-24 22:36:39 GMT 39.876759 -104.687057 0 182 58 64
2021-09-24 22:36:37 GMT 39.877300 -104.687027 0 180 63 64
2021-09-24 22:36:36 GMT 39.877621 -104.687019 0 180 64 64
2021-09-24 22:36:35 GMT 39.878220 -104.687019 0 180 72 -1344
2021-09-24 22:36:33 GMT 39.878521 -104.687012 0 179 77 -1344
2021-09-24 22:36:32 GMT 39.878899 -104.686996 5,100 178 78 -1344
2021-09-24 22:36:30 GMT 39.879608 -104.687019 5,100 179 87 -96
2021-09-24 22:36:29 GMT 39.880020 -104.687012 5,100 179 89 -96
2021-09-24 22:36:28 GMT 39.880409 -104.687050 5,100 181 94 -96
2021-09-24 22:36:26 GMT 39.881279 -104.687042 5,100 182 101 -96
2021-09-24 22:36:25 GMT 39.881748 -104.686996 5,100 181 103 -96
2021-09-24 22:36:24 GMT 39.882240 -104.686981 5,100 181 105 -96
2021-09-24 22:36:22 GMT 39.883202 -104.686981 5,100 181 114 -96
2021-09-24 22:36:21 GMT 39.883720 -104.686951 5,100 181 116 -96
2021-09-24 22:36:20 GMT 39.884232 -104.686928 5,100 181 122 -96
2021-09-24 22:36:18 GMT 39.885368 -104.686859 5,100 180 127 -96
2021-09-24 22:36:16 GMT 39.886509 -104.686836 5,100 179 136 -96
2021-09-24 22:36:15 GMT 39.887131 -104.686852 5,100 179 139 320
2021-09-24 22:36:14 GMT 39.887749 -104.686852 5,100 179 142 320
2021-09-24 22:36:13 GMT 39.889050 -104.686859 5,100 180 147 320
2021-09-24 22:36:11 GMT 39.889721 -104.686859 5,100 180 149 320
2021-09-24 22:36:10 GMT 39.890388 -104.686859 5,100 180 152 320
2021-09-24 22:36:09 GMT 39.891788 -104.686836 5,100 180 153 320
2021-09-24 22:36:07 GMT 39.892479 -104.686798 5,100 180 154 -704
2021-09-24 22:36:06 GMT 39.893188 -104.686798 5,150 180 155 -704
2021-09-24 22:36:04 GMT 39.894619 -104.686798 5,150 180 157 -704
2021-09-24 22:36:03 GMT 39.895370 -104.686798 5,150 180 153 -704
2021-09-24 22:36:02 GMT 39.896061 -104.686790 5,150 180 157 -704
2021-09-24 22:36:00 GMT 39.897499 -104.686760 5,150 179 154 -704
2021-09-24 22:35:59 GMT 39.898281 -104.686829 5,200 181 148 -704
2021-09-24 22:35:58 GMT 39.898979 -104.686813 5,200 181 146 -704
2021-09-24 22:35:57 GMT 39.899632 -104.686752 5,200 180 151 -704
2021-09-24 22:35:55 GMT 39.901051 -104.686768 5,300 181 145 -704
2021-09-24 22:35:54 GMT 39.901718 -104.686737 5,300 180 147 -704
2021-09-24 22:35:52 GMT 39.903790 -104.686699 5,275 180 151 -704
2021-09-24 22:35:50 GMT 39.904499 -104.686707 5,275 180 150 -704
2021-09-24 22:35:48 GMT 39.905849 -104.686684 5,350 180 153 -704
2021-09-24 22:35:47 GMT 39.906590 -104.686691 5,350 181 148 -704
2021-09-24 22:35:46 GMT 39.907951 -104.686630 5,350 179 156 -704
2021-09-24 22:35:44 GMT 39.908710 -104.686691 5,375 181 153 -704
2021-09-24 22:35:43 GMT 39.910118 -104.686653 5,400 180 153 -704
2021-09-24 22:35:41 GMT 39.910858 -104.686661 5,425 181 150 -704
2021-09-24 22:35:40 GMT 39.912251 -104.686577 5,450 179 160 -704
2021-09-24 22:35:38 GMT 39.913059 -104.686623 5,450 180 151 -704
2021-09-24 22:35:36 GMT 39.914471 -104.686638 5,525 181 158 -704
2021-09-24 22:35:35 GMT 39.915211 -104.686623 5,525 181 158 -704
2021-09-24 22:35:34 GMT 39.915932 -104.686600 5,525 180 157 -704
2021-09-24 22:35:32 GMT 39.917381 -104.686630 5,550 181 159 -704
2021-09-24 22:35:31 GMT 39.918121 -104.686607 5,550 181 160 -704
2021-09-24 22:35:29 GMT 39.919571 -104.686592 5,600 181 157 -704
2021-09-24 22:35:28 GMT 39.920269 -104.686569 5,600 181 159 -704
2021-09-24 22:35:27 GMT 39.921028 -104.686531 5,600 180 156 -704
2021-09-24 22:35:26 GMT 39.921780 -104.686577 5,600 182 152 -704
2021-09-24 22:35:25 GMT 39.923191 -104.686493 5,600 180 153 -704
2021-09-24 22:35:23 GMT 39.923840 -104.686462 5,675 180 159 -704
2021-09-24 22:35:22 GMT 39.924530 -104.686432 5,675 179 162 -704
2021-09-24 22:35:21 GMT 39.925339 -104.686470 5,675 181 156 -704
2021-09-24 22:35:19 GMT 39.926769 -104.686409 5,725 180 155 -704
2021-09-24 22:35:18 GMT 39.927479 -104.686417 5,725 180 156 -704
2021-09-24 22:35:17 GMT 39.928249 -104.686462 5,800 180 150 -704
2021-09-24 22:35:16 GMT 39.929699 -104.686432 5,800 181 148 -704
2021-09-24 22:35:14 GMT 39.930389 -104.686417 5,850 181 149 -704
2021-09-24 22:35:13 GMT 39.931049 -104.686363 5,850 180 152 -704
2021-09-24 22:35:12 GMT 39.932461 -104.686340 5,850 180 156 -704
2021-09-24 22:35:10 GMT 39.933102 -104.686310 5,850 180 164 -704
2021-09-24 22:35:09 GMT 39.933830 -104.686317 5,850 180 166 -704
2021-09-24 22:35:07 GMT 39.935291 -104.686287 5,900 180 172 -704
2021-09-24 22:35:06 GMT 39.936111 -104.686287 5,900 180 172 -704
2021-09-24 22:35:01 GMT 39.939632 -104.686226 5,925 181 164 -832
2021-09-24 22:34:53 GMT 39.946289 -104.686226 6,050 181 166 -832
2021-09-24 22:34:49 GMT 39.949314 -104.686157 6,100 180 175 -832
2021-09-24 22:34:44 GMT 39.953064 -104.686218 6,200 180 175 -832
2021-09-24 22:34:40 GMT 39.956532 -104.686157 6,250 182 180 -768
2021-09-24 22:34:35 GMT 39.960487 -104.686096 6,325 181 184 -768
2021-09-24 22:34:32 GMT 39.962723 -104.686035 6,350 181 186 -960
2021-09-24 22:34:28 GMT 39.965981 -104.685974 6,450 181 189 -1152
2021-09-24 22:34:25 GMT 39.968681 -104.685974 6,475 181 191 -1216
2021-09-24 22:34:20 GMT 39.973431 -104.685852 6,575 180 194 -1344
2021-09-24 22:34:17 GMT 39.975292 -104.685852 6,625 179 193 -1472
2021-09-24 22:34:14 GMT 39.978783 -104.685852 6,725 181 191 -1344
2021-09-24 22:34:11 GMT 39.980690 -104.685852 6,750 181 189 -320
2021-09-24 22:34:08 GMT 39.984463 -104.685783 6,750 180 190 64
2021-09-24 22:34:04 GMT 39.987442 -104.685791 6,750 180 191 0
2021-09-24 22:34:01 GMT 39.989910 -104.685783 6,775 180 191 -256
2021-09-24 22:33:58 GMT 39.992050 -104.685783 6,775 180 191 0
2021-09-24 22:33:55 GMT 39.995308 -104.685722 6,775 182 191 -64
2021-09-24 22:33:51 GMT 39.998753 -104.685661 6,800 181 191 192
2021-09-24 22:33:47 GMT 40.003281 -104.685608 6,750 181 192 128
2021-09-24 22:33:44 GMT 40.008362 -104.685669 6,750 179 193 64
2021-09-24 22:33:41 GMT 40.008362 -104.685669 6,750 179 193 -64
2021-09-24 22:33:38 GMT 40.010422 -104.685669 6,750 179 193 -256
2021-09-24 22:33:32 GMT 40.015869 -104.685669 6,775 181 193 0
2021-09-24 22:33:28 GMT 40.019470 -104.685600 6,775 181 192 256
2021-09-24 22:33:23 GMT 40.023010 -104.685547 6,750 181 191 192
2021-09-24 22:33:20 GMT 40.026173 -104.685478 6,750 181 190 64
2021-09-24 22:33:17 GMT 40.028919 -104.685478 6,725 181 189 64
2021-09-24 22:33:14 GMT 40.032349 -104.685364 6,725 181 191 0
2021-09-24 22:33:06 GMT 40.038418 -104.685165 6,750 183 194 -192
2021-09-24 22:33:02 GMT 40.042095 -104.684914 6,750 183 194 64
2021-09-24 22:32:59 GMT 40.045025 -104.684853 6,750 181 193 -128
2021-09-24 22:32:53 GMT 40.050659 -104.684814 6,750 178 193 128
2021-09-24 22:32:48 GMT 40.054150 -104.684914 6,750 178 195 -128
2021-09-24 22:32:42 GMT 40.060158 -104.685226 6,750 205 191 64
2021-09-24 22:32:39 GMT 40.063065 -104.685303 6,750 181 197 -64
2021-09-24 22:32:32 GMT 40.070026 -104.684914 6,750 187 193 192
2021-09-24 22:32:29 GMT 40.072586 -104.684540 6,750 190 192 192
2021-09-24 22:32:25 GMT 40.075565 -104.683723 6,725 195 191 0
2021-09-24 22:32:21 GMT 40.078964 -104.682358 6,725 207 192 0
2021-09-24 22:32:18 GMT 40.081558 -104.680847 6,725 207 192 0
2021-09-24 22:32:10 GMT 40.087234 -104.676880 6,725 210 197 -256
2021-09-24 22:32:07 GMT 40.089432 -104.675293 6,750 210 196 -192
2021-09-24 22:32:01 GMT 40.095337 -104.671021 6,775 209 197 -320
2021-09-24 22:31:57 GMT 40.097721 -104.669304 6,775 209 196 -64
2021-09-24 22:31:48 GMT 40.105965 -104.663437 6,750 210 196 128
2021-09-24 22:31:43 GMT 40.109940 -104.660583 6,750 210 199 -256
2021-09-24 22:31:40 GMT 40.112202 -104.658943 6,750 209 201 0
2021-09-24 22:31:36 GMT 40.114670 -104.657135 6,750 209 202 128
2021-09-24 22:31:32 GMT 40.117554 -104.654953 6,750 212 207 128
2021-09-24 22:31:26 GMT 40.122349 -104.650269 6,725 226 216 128
2021-09-24 22:31:23 GMT 40.125046 -104.646423 6,725 235 222 256
2021-09-24 22:31:19 GMT 40.127422 -104.641655 6,700 244 228 -256
2021-09-24 22:31:16 GMT 40.128635 -104.638405 6,725 248 231 -192
2021-09-24 22:31:12 GMT 40.129898 -104.633484 6,725 257 235 192
2021-09-24 22:31:05 GMT 40.131054 -104.624428 6,725 268 242 0
2021-09-24 22:31:01 GMT 40.131271 -104.618164 6,750 269 242 128
2021-09-24 22:30:57 GMT 40.131382 -104.612625 6,900 268 242 -1024
2021-09-24 22:30:50 GMT 40.131592 -104.599976 6,750 269 241 -256
2021-09-24 22:30:46 GMT 40.131683 -104.595642 6,775 269 238 -640
2021-09-24 22:30:40 GMT 40.131866 -104.588135 6,850 269 238 -1280
2021-09-24 22:30:36 GMT 40.132050 -104.580811 6,975 269 239 -1472
2021-09-24 22:30:31 GMT 40.132233 -104.572876 7,100 269 240 -1344
2021-09-24 22:30:25 GMT 40.132404 -104.565933 7,200 268 241 -960
2021-09-24 22:30:18 GMT 40.132782 -104.555237 7,325 268 242 -1024
2021-09-24 22:30:15 GMT 40.132965 -104.550514 7,350 267 247 -448
2021-09-24 22:30:12 GMT 40.133148 -104.545898 7,350 268 250 -896
2021-09-24 22:30:05 GMT 40.133423 -104.534180 8,050 312 243 192
2021-09-24 22:29:57 GMT 40.132870 -104.522179 7,675 284 252 -960
2021-09-24 22:29:54 GMT 40.132507 -104.519348 7,700 286 252 -832
2021-09-24 22:29:43 GMT 40.119507 -104.491943 8,050 312 243 192
2021-09-24 22:29:33 GMT 40.119507 -104.491943 7,725 323 244 128
2021-09-24 22:29:28 GMT 40.115833 -104.488472 7,725 328 245 -64
2021-09-24 22:29:23 GMT 40.110535 -104.484802 7,725 338 247 -128
2021-09-24 22:29:12 GMT 40.098953 -104.481262 8,050 322 251 320
2021-09-24 22:29:07 GMT 40.092556 -104.480850 7,750 359 246 -64
2021-09-24 22:28:56 GMT 40.081104 -104.480354 7,775 358 242 64
2021-09-24 22:28:53 GMT 40.075657 -104.479980 7,750 356 242 128
2021-09-24 22:28:46 GMT 40.068954 -104.478859 7,750 350 244 128
2021-09-24 22:28:42 GMT 40.064205 -104.477295 7,750 340 247 64
2021-09-24 22:28:34 GMT 40.056946 -104.472801 7,725 326 251 64
2021-09-24 22:28:31 GMT 40.053726 -104.469788 7,725 319 254 0
2021-09-24 22:28:26 GMT 40.048470 -104.464127 7,725 319 255 0
2021-09-24 22:28:23 GMT 40.046310 -104.461731 7,725 320 256 0
2021-09-24 22:28:20 GMT 40.043793 -104.458862 8,050 301 276 -896
2021-09-24 22:28:15 GMT 40.039207 -104.453766 7,800 320 263 -768
2021-09-24 22:28:11 GMT 40.035950 -104.450142 7,900 319 266 -960
2021-09-24 22:28:02 GMT 40.026581 -104.439209 7,975 313 271 -448
2021-09-24 22:27:58 GMT 40.023987 -104.435844 8,000 313 271 -448
2021-09-24 22:27:55 GMT 40.020821 -104.431038 8,050 304 274 -768
2021-09-24 22:27:50 GMT 40.017979 -104.425545 8,200 297 276 -960
2021-09-24 22:27:44 GMT 40.014679 -104.416199 8,200 297 276 -960
2021-09-24 22:27:41 GMT 40.013046 -104.409821 8,250 289 280 -512
2021-09-24 22:27:34 GMT 40.010159 -104.398582 8,325 289 283 -704
2021-09-24 22:27:29 GMT 40.008297 -104.391281 8,500 288 288 -832
2021-09-24 22:27:23 GMT 40.005981 -104.382080 8,450 288 288 -832
2021-09-24 22:27:20 GMT 40.004620 -104.376419 8,500 288 289 -896
2021-09-24 22:27:17 GMT 40.003464 -104.371765 8,525 288 290 -960
2021-09-24 22:27:13 GMT 40.001678 -104.364563 8,600 288 292 -1024
2021-09-24 22:27:07 GMT 39.999435 -104.355713 8,675 289 294 -768
2021-09-24 22:26:59 GMT 39.995541 -104.340157 8,750 289 297 128
2021-09-24 22:26:48 GMT 39.990746 -104.321487 8,750 289 295 384
2021-09-24 22:26:37 GMT 39.986511 -104.304451 8,725 289 290 64
2021-09-24 22:26:32 GMT 39.983917 -104.294128 8,725 289 290 64
2021-09-24 22:26:29 GMT 39.982925 -104.290154 8,725 289 290 0
2021-09-24 22:26:24 GMT 39.981079 -104.282837 8,750 289 290 -64
2021-09-24 22:26:16 GMT 39.977291 -104.267998 8,750 288 292 -128
2021-09-24 22:26:08 GMT 39.974258 -104.255737 8,750 289 294 0
2021-09-24 22:26:05 GMT 39.972778 -104.249641 8,750 289 295 -64
2021-09-24 22:25:57 GMT 39.969566 -104.237160 8,750 289 296 64
2021-09-24 22:25:54 GMT 39.967987 -104.231079 8,750 289 297 0
2021-09-24 22:25:46 GMT 39.964417 -104.217102 8,775 289 298 -128
2021-09-24 22:25:42 GMT 39.963364 -104.213013 8,775 289 298 256
2021-09-24 22:25:37 GMT 39.960907 -104.203697 8,750 289 296 128
2021-09-24 22:25:33 GMT 39.958858 -104.195770 8,750 289 295 -128
2021-09-24 22:25:26 GMT 39.956345 -104.185844 8,750 289 293 0
2021-09-24 22:25:22 GMT 39.953876 -104.176361 8,750 289 291 128
2021-09-24 22:25:12 GMT 39.949677 -104.160095 8,750 289 290 0
2021-09-24 22:25:06 GMT 39.947617 -104.152344 8,750 290 290 0
2021-09-24 22:25:03 GMT 39.946056 -104.146393 8,750 289 290 -64
2021-09-24 22:25:00 GMT 39.944733 -104.141418 8,750 289 290 -64
2021-09-24 22:24:56 GMT 39.943077 -104.135094 8,750 289 291 -64
2021-09-24 22:24:50 GMT 39.940331 -104.124672 8,750 289 292 64
2021-09-24 22:24:44 GMT 39.938095 -104.115784 8,750 289 294 0
2021-09-24 22:24:36 GMT 39.934280 -104.100891 8,750 289 294 128
2021-09-24 22:24:28 GMT 39.931019 -104.088097 8,725 289 294 -128
2021-09-24 22:24:18 GMT 39.926365 -104.069801 8,750 289 294 -128
2021-09-24 22:24:07 GMT 39.921616 -104.050980 8,750 289 294 0
2021-09-24 22:23:55 GMT 39.917194 -104.033813 8,725 289 295 0
2021-09-24 22:23:46 GMT 39.912598 -104.016228 8,750 289 298 192
2021-09-24 22:23:35 GMT 39.907604 -103.996887 8,750 288 296 -256
2021-09-24 22:23:24 GMT 39.903488 -103.979446 8,725 289 292 64
2021-09-24 22:23:12 GMT 39.898773 -103.961235 8,750 289 295 0
2021-09-24 22:23:00 GMT 39.893051 -103.938843 8,750 289 295 -128
2021-09-24 22:22:51 GMT 39.888985 -103.922485 8,750 288 299 -64
2021-09-24 22:22:40 GMT 39.884674 -103.904808 8,750 288 298 0
2021-09-24 22:22:28 GMT 39.879997 -103.886169 8,750 289 294 64
2021-09-24 22:22:20 GMT 39.876068 -103.870537 8,750 289 294 -64
2021-09-24 22:22:00 GMT 39.867802 -103.837585 8,750 289 294 64
2021-09-24 22:21:55 GMT 39.865723 -103.829224 8,725 288 290 0
2021-09-24 22:21:37 GMT 39.858215 -103.799126 8,750 288 290 64
2021-09-24 22:21:25 GMT 39.853180 -103.778290 8,750 288 291 64
2021-09-24 22:21:13 GMT 39.848763 -103.760193 8,725 287 293 -64
2021-09-24 22:20:59 GMT 39.843269 -103.736938 8,725 287 294 -192
2021-09-24 22:20:03 GMT 39.822777 -103.632774 9,000 273 293
2021-09-24 22:19:25 GMT 39.816666 -103.566666 9,000 272 293
2021-09-24 22:19:01 GMT 39.818333 -103.526947 9,100 273 293
2021-09-24 22:18:00 GMT 39.813889 -103.421112 9,100 273 293
2021-09-24 22:16:59 GMT 39.809166 -103.316109 9,000 273 293
2021-09-24 22:15:58 GMT 39.803333 -103.189445 9,000 273 292
2021-09-24 22:14:57 GMT 39.798332 -103.083336 9,100 273 289
2021-09-24 22:13:56 GMT 39.793610 -102.978333 8,900 273 289
2021-09-24 22:12:55 GMT 39.788612 -102.874725 9,000 273 289
2021-09-24 22:11:54 GMT 39.783611 -102.771111 9,000 273 289
We lost coverage of the aircraft here for a total of 6 minutes
2021-09-24 22:06:20 GMT 39.754074 -102.204498 8,850 274 289 -320
2021-09-24 22:06:01 GMT 39.752289 -102.171242 8,900 274 289 -64
2021-09-24 22:05:47 GMT 39.751236 -102.149803 8,900 274 288 64
2021-09-24 22:05:39 GMT 39.750412 -102.134102 8,875 275 284 -320
2021-09-24 22:05:31 GMT 39.749725 -102.122818 8,875 275 285 0
2021-09-24 22:05:21 GMT 39.748722 -102.104309 8,900 275 286 -64
2021-09-24 22:05:10 GMT 39.747696 -102.085510 8,900 274 284 192
2021-09-24 22:04:58 GMT 39.746628 -102.065369 8,875 275 284 64
2021-09-24 22:04:50 GMT 39.745693 -102.049438 8,875 275 289 128
2021-09-24 22:04:38 GMT 39.744392 -102.029175 8,875 274 290 -128
2021-09-24 22:04:27 GMT 39.743507 -102.010681 8,900 275 291 0
2021-09-24 22:04:16 GMT 39.742447 -101.992531 8,875 275 291 -64
2021-09-24 22:04:07 GMT 39.741550 -101.975342 8,900 274 294 -384
2021-09-24 22:03:54 GMT 39.740341 -101.954224 8,875 275 292 64
2021-09-24 22:03:46 GMT 39.739380 -101.937843 8,875 275 290 -192
2021-09-24 22:03:32 GMT 39.738201 -101.916870 8,900 274 289 0
2021-09-24 22:03:21 GMT 39.736992 -101.894226 8,875 274 287 64
2021-09-24 22:03:13 GMT 39.736431 -101.883118 8,875 275 285 -128
2021-09-24 22:03:03 GMT 39.735359 -101.865295 8,900 275 287 128
2021-09-24 22:02:53 GMT 39.734245 -101.846802 8,900 275 290 -64
2021-09-24 22:02:42 GMT 39.733082 -101.827881 8,875 275 286 128
2021-09-24 22:02:30 GMT 39.732101 -101.809883 8,875 275 284 -64
2021-09-24 22:02:19 GMT 39.730774 -101.789047 8,875 275 283 0
2021-09-24 22:02:09 GMT 39.729858 -101.773941 8,875 275 285 -64
2021-09-24 22:01:59 GMT 39.728668 -101.753700 8,875 275 289 128
2021-09-24 22:01:48 GMT 39.727478 -101.733398 8,900 274 290 -128
2021-09-24 22:01:35 GMT 39.726467 -101.713867 8,900 274 291 -128
2021-09-24 22:01:25 GMT 39.725632 -101.696655 8,900 275 288 128
2021-09-24 22:01:15 GMT 39.724411 -101.678406 8,875 276 287 -320
2021-09-24 22:01:02 GMT 39.723083 -101.657928 8,875 275 284 0
2021-09-24 22:00:51 GMT 39.722076 -101.638161 8,875 275 284 64
2021-09-24 22:00:42 GMT 39.721207 -101.623772 8,875 275 286 -128
2021-09-24 22:00:32 GMT 39.720200 -101.606102 8,900 274 288 0
2021-09-24 22:00:22 GMT 39.719112 -101.586914 8,900 275 289 -128
2021-09-24 22:00:10 GMT 39.717999 -101.568787 8,875 275 288 0
2021-09-24 22:00:00 GMT 39.716721 -101.549500 8,900 275 293 64
2021-09-24 21:59:50 GMT 39.715668 -101.533203 8,875 275 291 64
2021-09-24 21:59:40 GMT 39.714478 -101.514091 8,900 274 284 64
2021-09-24 21:59:26 GMT 39.713379 -101.492477 8,875 275 282 0
2021-09-24 21:59:18 GMT 39.712555 -101.478806 8,875 275 282 0
2021-09-24 21:59:08 GMT 39.711342 -101.459534 8,875 275 284 -192
2021-09-24 21:58:56 GMT 39.710316 -101.442505 8,925 275 289 192
2021-09-24 21:58:47 GMT 39.709167 -101.424469 8,900 276 290 192
2021-09-24 21:58:35 GMT 39.707886 -101.404648 8,900 275 291 0
2021-09-24 21:58:25 GMT 39.706879 -101.386673 8,900 275 290 128
2021-09-24 21:58:15 GMT 39.705753 -101.367798 8,875 275 286 0
2021-09-24 21:58:03 GMT 39.704773 -101.350014 8,875 275 285 -192
2021-09-24 21:57:54 GMT 39.703766 -101.333115 8,875 276 286 -64
2021-09-24 21:57:42 GMT 39.702209 -101.312637 8,900 276 286 64
2021-09-24 21:57:32 GMT 39.701111 -101.296036 8,875 275 286 0
2021-09-24 21:57:20 GMT 39.700027 -101.276672 8,900 276 286 0
2021-09-24 21:57:09 GMT 39.698723 -101.256104 8,875 275 283 0
2021-09-24 21:57:00 GMT 39.697887 -101.241821 8,875 275 280 64
2021-09-24 21:56:50 GMT 39.696770 -101.223511 8,875 275 283 -128
2021-09-24 21:56:37 GMT 39.695572 -101.203842 8,875 275 289 192
2021-09-24 21:56:27 GMT 39.694336 -101.185272 8,900 276 291 -64
2021-09-24 21:56:18 GMT 39.693329 -101.169098 8,875 274 291 64
2021-09-24 21:56:06 GMT 39.692184 -101.150047 8,875 276 286 -192
2021-09-24 21:55:55 GMT 39.690903 -101.131653 8,875 276 285 256
2021-09-24 21:55:45 GMT 39.689713 -101.112671 8,900 275 289 64
2021-09-24 21:55:35 GMT 39.688717 -101.095947 8,875 276 291 -64
2021-09-24 21:55:25 GMT 39.687378 -101.076729 8,900 276 289 64
2021-09-24 21:55:13 GMT 39.686153 -101.058105 8,900 275 286 -64
2021-09-24 21:55:03 GMT 39.685085 -101.039978 8,875 275 287 0
2021-09-24 21:54:52 GMT 39.683968 -101.021545 8,900 275 287 0
2021-09-24 21:54:42 GMT 39.683029 -101.004715 8,875 275 286 128
2021-09-24 21:54:32 GMT 39.681686 -100.985596 8,875 277 289 -128
2021-09-24 21:54:20 GMT 39.680290 -100.967224 8,900 276 286 64
2021-09-24 21:54:10 GMT 39.679138 -100.949486 8,875 275 282 192
2021-09-24 21:53:57 GMT 39.677822 -100.928833 8,900 276 281 -128
2021-09-24 21:53:49 GMT 39.676750 -100.912842 8,875 275 282 64
2021-09-24 21:53:39 GMT 39.675659 -100.895988 8,875 275 282 64
2021-09-24 21:53:27 GMT 39.674561 -100.878731 8,875 275 277 64
2021-09-24 21:53:18 GMT 39.673370 -100.861000 8,875 275 279 0
2021-09-24 21:53:07 GMT 39.672142 -100.842651 8,900 276 286 64
2021-09-24 21:52:56 GMT 39.670990 -100.825592 8,875 276 286 -64
2021-09-24 21:52:46 GMT 39.669769 -100.806519 8,900 275 284 -64
2021-09-24 21:52:34 GMT 39.668610 -100.787796 8,875 275 284 0
2021-09-24 21:52:25 GMT 39.667557 -100.771019 8,875 275 284 -64
2021-09-24 21:52:14 GMT 39.666370 -100.752991 8,900 276 287 64
2021-09-24 21:52:03 GMT 39.664902 -100.735138 8,900 276 287 0
2021-09-24 21:51:53 GMT 39.663624 -100.717346 8,875 275 284 0
2021-09-24 21:51:41 GMT 39.662647 -100.698853 8,875 275 284 0
2021-09-24 21:51:30 GMT 39.661251 -100.678162 8,875 276 283 0
2021-09-24 21:51:20 GMT 39.660187 -100.662949 8,900 276 283 -64
2021-09-24 21:51:10 GMT 39.658859 -100.643486 8,900 276 285 0
2021-09-24 21:50:59 GMT 39.657806 -100.627724 8,875 275 285 0
2021-09-24 21:50:49 GMT 39.656456 -100.607544 8,875 276 283 128
2021-09-24 21:50:37 GMT 39.655197 -100.590820 8,875 276 282 0
2021-09-24 21:50:27 GMT 39.654007 -100.573326 8,900 276 281 128
2021-09-24 21:50:16 GMT 39.652592 -100.552734 8,875 275 280 -128
2021-09-24 21:50:04 GMT 39.651443 -100.534637 8,900 275 285 -192
2021-09-24 21:49:57 GMT 39.650497 -100.520142 8,900 276 286 128
2021-09-24 21:49:45 GMT 39.649101 -100.502136 8,875 276 282 192
2021-09-24 21:49:33 GMT 39.647690 -100.481552 8,875 275 284 -192
2021-09-24 21:49:23 GMT 39.646408 -100.463524 8,875 276 286 0
2021-09-24 21:49:11 GMT 39.645096 -100.444641 8,875 276 288 0
2021-09-24 21:49:04 GMT 39.644165 -100.430084 8,875 276 286 -256
2021-09-24 21:48:52 GMT 39.642975 -100.412651 8,875 276 284 0
2021-09-24 21:48:42 GMT 39.641605 -100.392761 8,875 276 285 128
2021-09-24 21:48:31 GMT 39.640301 -100.376038 8,875 275 281 -256
2021-09-24 21:48:20 GMT 39.638996 -100.357422 8,900 276 280 -128
2021-09-24 21:48:10 GMT 39.637756 -100.339745 8,875 276 280 -64
2021-09-24 21:47:59 GMT 39.636578 -100.321899 8,900 275 283 0
2021-09-24 21:47:50 GMT 39.635460 -100.305176 8,875 276 283 64
2021-09-24 21:47:38 GMT 39.634155 -100.287476 8,900 276 283 64
2021-09-24 21:47:28 GMT 39.632812 -100.268875 8,875 276 283 -128
2021-09-24 21:47:17 GMT 39.631454 -100.251038 8,875 276 281 64
2021-09-24 21:47:07 GMT 39.630341 -100.234421 8,900 275 282 -64
2021-09-24 21:46:57 GMT 39.629082 -100.216309 8,875 276 281 128
2021-09-24 21:46:44 GMT 39.627640 -100.196327 8,875 276 282 -64
2021-09-24 21:46:36 GMT 39.626568 -100.181335 8,875 277 282 0
2021-09-24 21:46:22 GMT 39.624847 -100.159729 8,875 276 278 -128
2021-09-24 21:46:15 GMT 39.623886 -100.145393 8,875 275 273 128
2021-09-24 21:46:01 GMT 39.622566 -100.125305 8,875 276 275 -128
2021-09-24 21:45:54 GMT 39.621460 -100.110825 8,900 276 277 -128
2021-09-24 21:45:42 GMT 39.619995 -100.091423 8,900 276 276 0
2021-09-24 21:45:27 GMT 39.618423 -100.068665 8,875 275 276 128
2021-09-24 21:45:19 GMT 39.617386 -100.054398 8,875 276 275 0
2021-09-24 21:45:08 GMT 39.616093 -100.036865 8,900 276 275 64
2021-09-24 21:45:00 GMT 39.615025 -100.022278 8,900 276 273 128
2021-09-24 21:44:41 GMT 39.612854 -99.993141 8,875 276 272 64
2021-09-24 21:44:37 GMT 39.612396 -99.987106 8,875 276 273 -64
2021-09-24 21:44:28 GMT 39.611252 -99.972290 8,900 276 273 0
2021-09-24 21:44:14 GMT 39.608891 -99.941391 9,100 275 272
2021-09-24 21:43:24 GMT 39.603058 -99.861389 9,100 275 272
2021-09-24 21:42:23 GMT 39.595554 -99.763336 9,100 275 272
2021-09-24 21:42:12 GMT 39.594166 -99.744720 9,100 275 272
2021-09-24 21:41:22 GMT 39.588333 -99.665276 9,100 275 272
2021-09-24 21:41:10 GMT 39.586388 -99.643890 9,100 275 271
2021-09-24 21:40:21 GMT 39.580833 -99.567223 9,100 275 272
2021-09-24 21:40:09 GMT 39.579166 -99.547501 9,100 275 271
2021-09-24 21:39:20 GMT 39.573055 -99.470833 9,100 275 271
2021-09-24 21:39:06 GMT 39.570000 -99.427780 9,100 276 271
2021-09-24 21:38:19 GMT 39.565556 -99.372780 9,100 276 270
2021-09-24 21:38:06 GMT 39.562222 -99.332497 9,100 275 271
2021-09-24 21:37:18 GMT 39.556110 -99.255280 9,100 275 270
2021-09-24 21:37:06 GMT 39.554169 -99.233330 9,100 275 270
2021-09-24 21:36:17 GMT 39.548332 -99.159164 9,100 275 271
2021-09-24 21:36:06 GMT 39.546944 -99.140556 9,100 276 271
2021-09-24 21:35:16 GMT 39.540558 -99.061668 9,100 276 271
2021-09-24 21:35:03 GMT 39.538891 -99.041664 9,100 276 271
2021-09-24 21:34:15 GMT 39.532501 -98.965279 9,100 276 271
2021-09-24 21:33:14 GMT 39.524445 -98.866943 9,100 276 271
2021-09-24 21:33:00 GMT 39.522778 -98.847504 9,000 276 271
2021-09-24 21:32:13 GMT 39.516109 -98.770279 9,100 276 271
2021-09-24 21:32:00 GMT 39.514442 -98.750275 9,000 276 271
2021-09-24 21:31:12 GMT 39.508057 -98.673058 9,100 276 271
2021-09-24 21:31:00 GMT 39.506111 -98.652222 9,000 276 270
2021-09-24 21:30:11 GMT 39.499722 -98.577225 9,100 276 271
2021-09-24 21:29:57 GMT 39.498055 -98.556664 9,000 276 270
2021-09-24 21:29:10 GMT 39.491390 -98.478889 9,100 276 271
2021-09-24 21:28:58 GMT 39.489723 -98.461388 9,100 276 271
2021-09-24 21:28:08 GMT 39.482777 -98.383057 9,100 276 271
2021-09-24 21:27:57 GMT 39.481388 -98.365829 9,100 276 272
2021-09-24 21:27:06 GMT 39.474445 -98.285278 9,000 276 273
2021-09-24 21:26:56 GMT 39.472778 -98.269165 9,100 276 273
2021-09-24 21:26:06 GMT 39.465832 -98.189163 9,000 276 274
2021-09-24 21:25:06 GMT 39.456669 -98.087502 9,000 276 276
2021-09-24 21:24:03 GMT 39.448055 -97.992226 9,000 276 277
2021-09-24 21:23:53 GMT 39.446388 -97.975830 9,100 276 277
2021-09-24 21:23:03 GMT 39.438610 -97.888336 9,000 277 278
2021-09-24 21:22:52 GMT 39.435833 -97.859444 9,100 276 279
2021-09-24 21:22:02 GMT 39.428055 -97.777496 9,100 266 281
2021-09-24 21:21:51 GMT 39.426388 -97.759720 9,100 259 280
2021-09-24 21:20:59 GMT 39.419998 -97.683891 9,000 207 281
2021-09-24 21:19:59 GMT 39.435833 -97.593330 9,000 207 290
2021-09-24 21:19:49 GMT 39.451389 -97.583054 9,000 151 296
2021-09-24 21:17:56 GMT 39.516945 -97.730553 9,000 94 302
We lost coverage of the aircraft here for a total of 5 minutes
2021-09-24 21:12:28 GMT 39.555771 -98.362686 14,475 94 396 -2752
2021-09-24 21:12:18 GMT 39.557144 -98.384956 14,925 94 398 -2816
2021-09-24 21:12:08 GMT 39.558792 -98.410454 15,425 94 402 -2880
2021-09-24 21:11:55 GMT 39.560417 -98.439148 16,000 93 405 -2944
2021-09-24 21:11:45 GMT 39.561768 -98.464966 16,525 94 409 -3008
2021-09-24 21:11:34 GMT 39.563187 -98.489510 17,000 94 413 -2944
2021-09-24 21:11:25 GMT 39.564743 -98.514938 17,500 94 417 -2752
2021-09-24 21:11:12 GMT 39.566841 -98.549866 18,050 94 427 -2240
2021-09-24 21:11:05 GMT 39.567818 -98.566711 18,300 93 432 -2368
2021-09-24 21:10:53 GMT 39.569355 -98.596313 18,800 93 438 -2880
2021-09-24 21:10:46 GMT 39.570099 -98.612366 19,100 93 441 -2816
2021-09-24 21:10:43 GMT 39.570557 -98.620865 19,250 93 446 -2944
2021-09-24 21:10:38 GMT 39.571217 -98.633362 19,475 94 448 -3200
2021-09-24 21:10:33 GMT 39.572147 -98.650452 19,825 94 451 -3456
2021-09-24 21:10:30 GMT 39.572571 -98.658302 20,000 94 451 -3648
2021-09-24 21:10:22 GMT 39.573669 -98.677406 20,450 94 452 -3904
2021-09-24 21:10:10 GMT 39.575638 -98.709290 21,225 94 452 -4032
2021-09-24 21:10:00 GMT 39.577271 -98.735718 21,875 94 453 -3776
2021-09-24 21:09:50 GMT 39.578888 -98.762314 22,475 94 456 -3648
2021-09-24 21:09:40 GMT 39.580528 -98.791748 23,100 93 459 -3392
2021-09-24 21:09:30 GMT 39.582047 -98.820351 23,700 94 463 -3456
2021-09-24 21:09:19 GMT 39.583649 -98.849487 24,300 94 467 -3456
2021-09-24 21:09:13 GMT 39.584839 -98.870445 24,725 94 469 -3456
2021-09-24 21:09:08 GMT 39.585278 -98.878845 24,900 93 472 -3392
2021-09-24 21:09:04 GMT 39.585880 -98.890381 25,125 93 473 -3392
2021-09-24 21:08:58 GMT 39.586716 -98.908836 25,500 93 475 -3584
2021-09-24 21:08:51 GMT 39.587791 -98.931274 26,000 93 478 -3904
2021-09-24 21:08:48 GMT 39.588116 -98.937012 26,150 94 478 -4416
2021-09-24 21:08:38 GMT 39.589931 -98.968262 27,050 94 474 -5376
2021-09-24 21:08:26 GMT 39.591614 -98.997566 27,975 93 468 -5248
2021-09-24 21:08:17 GMT 39.593002 -99.026978 28,850 93 462 -4480
2021-09-24 21:08:09 GMT 39.594028 -99.049377 29,425 93 462 -4096
2021-09-24 21:08:05 GMT 39.594360 -99.057152 29,575 93 463 -3392
2021-09-24 21:08:00 GMT 39.595001 -99.070168 29,825 93 465 -2752
2021-09-24 21:07:54 GMT 39.596054 -99.090233 30,150 94 469 -2560
2021-09-24 21:07:50 GMT 39.596729 -99.102539 30,350 94 471 -2560
2021-09-24 21:07:45 GMT 39.597290 -99.113281 30,500 93 473 -2560
2021-09-24 21:07:39 GMT 39.598114 -99.129105 30,750 93 477 -2624
2021-09-24 21:07:34 GMT 39.598892 -99.145340 31,000 93 479 -2688
2021-09-24 21:07:30 GMT 39.599579 -99.158539 31,200 93 481 -2688
2021-09-24 21:07:24 GMT 39.600357 -99.173225 31,425 94 484 -2496
2021-09-24 21:07:21 GMT 39.600685 -99.179565 31,500 94 485 -2432
2021-09-24 21:07:17 GMT 39.601337 -99.191711 31,725 94 486 -2368
2021-09-24 21:07:14 GMT 39.602005 -99.203918 31,825 93 489 -2240
2021-09-24 21:07:11 GMT 39.602554 -99.214127 31,950 93 489 -2176
2021-09-24 21:07:02 GMT 39.603710 -99.235535 32,225 94 493 -2112
2021-09-24 21:06:58 GMT 39.604477 -99.249115 32,375 94 495 -2048
2021-09-24 21:06:51 GMT 39.605713 -99.271667 32,625 94 499 -1856
2021-09-24 21:06:46 GMT 39.606785 -99.289551 32,825 94 500 -2112
2021-09-24 21:06:39 GMT 39.607620 -99.304749 33,000 93 501 -2368
2021-09-24 21:06:36 GMT 39.608276 -99.318199 33,175 93 501 -2560
2021-09-24 21:06:31 GMT 39.608879 -99.330200 33,350 93 501 -2560
2021-09-24 21:06:26 GMT 39.609787 -99.348412 33,625 93 501 -2496
2021-09-24 21:06:22 GMT 39.610184 -99.356201 33,725 93 501 -2496
2021-09-24 21:06:19 GMT 39.610695 -99.366028 33,850 93 501 -2368
2021-09-24 21:06:15 GMT 39.611160 -99.375580 34,200 93 502 -2304
2021-09-24 21:06:11 GMT 39.612030 -99.392059 34,200 93 502 -2368
2021-09-24 21:06:06 GMT 39.612556 -99.402527 34,325 93 502 -2368
2021-09-24 21:06:03 GMT 39.613113 -99.413635 34,475 93 502 -2560
2021-09-24 21:05:59 GMT 39.613678 -99.424416 34,650 93 502 -2560
2021-09-24 21:05:56 GMT 39.614227 -99.435524 34,800 93 502 -2752
2021-09-24 21:05:50 GMT 39.615143 -99.454094 35,100 93 500 -2944
2021-09-24 21:05:46 GMT 39.615582 -99.462463 35,225 93 500 -2944
2021-09-24 21:05:38 GMT 39.616791 -99.489861 35,700 93 497 -2944
2021-09-24 21:05:34 GMT 39.617210 -99.499390 35,850 93 497 -2816
2021-09-24 21:05:27 GMT 39.618095 -99.520752 36,175 93 497 -2560
2021-09-24 21:05:24 GMT 39.618423 -99.528748 36,275 93 497 -2496
2021-09-24 21:05:18 GMT 39.619308 -99.547539 36,575 93 500 -1984
2021-09-24 21:05:15 GMT 39.619865 -99.558838 36,650 93 500 -1856
2021-09-24 21:05:10 GMT 39.620682 -99.574646 36,800 93 501 -1344
2021-09-24 21:05:07 GMT 39.621002 -99.581512 36,850 93 502 -1280
2021-09-24 21:05:04 GMT 39.621353 -99.588440 36,900 93 502 -896
2021-09-24 21:04:57 GMT 39.622471 -99.610596 36,975 93 502 -384
2021-09-24 21:04:54 GMT 39.622879 -99.619606 37,000 93 502 -320
2021-09-24 21:04:47 GMT 39.623917 -99.641541 37,000 93 502 0
2021-09-24 21:04:43 GMT 39.624428 -99.652039 37,000 93 502 0
2021-09-24 21:04:37 GMT 39.625313 -99.670349 37,000 93 502 64
2021-09-24 21:04:34 GMT 39.625870 -99.682068 37,000 93 502 0
2021-09-24 21:04:26 GMT 39.626987 -99.706055 37,000 93 502 0
2021-09-24 21:04:23 GMT 39.627266 -99.711182 37,000 93 502 0
2021-09-24 21:04:16 GMT 39.628384 -99.736389 37,000 93 502 0
2021-09-24 21:04:13 GMT 39.628662 -99.742065 37,000 93 502 0
2021-09-24 21:04:02 GMT 39.630203 -99.773949 37,000 93 502 0
2021-09-24 21:03:53 GMT 39.631641 -99.805176 37,025 93 502 -64
2021-09-24 21:03:41 GMT 39.633179 -99.837280 37,025 93 501 0
2021-09-24 21:03:32 GMT 39.634995 -99.876831 37,025 93 501 64
2021-09-24 21:03:28 GMT 39.635925 -99.898438 37,025 93 501 64
2021-09-24 21:03:21 GMT 39.635925 -99.898438 37,000 93 501 64
2021-09-24 21:03:12 GMT 39.637276 -99.928711 37,000 93 501 0
2021-09-24 21:03:01 GMT 39.638535 -99.956894 37,000 93 501 0
2021-09-24 21:02:58 GMT 39.638950 -99.966492 37,000 93 501 0
2021-09-24 21:02:49 GMT 39.640163 -99.993469 37,000 93 501 0
2021-09-24 21:02:41 GMT 39.641418 -100.021027 37,000 93 500 0
2021-09-24 21:02:30 GMT 39.642746 -100.051239 37,000 93 500 0
2021-09-24 21:02:20 GMT 39.644119 -100.082642 37,000 93 499 0
2021-09-24 21:02:08 GMT 39.645561 -100.114563 37,000 93 499 64
2021-09-24 21:01:58 GMT 39.646912 -100.145035 37,000 93 499 0
2021-09-24 21:01:47 GMT 39.648331 -100.178772 37,000 93 499 0
2021-09-24 21:01:37 GMT 39.649658 -100.210938 37,000 93 498 0
2021-09-24 21:01:28 GMT 39.650894 -100.238960 37,000 93 498 0
2021-09-24 21:01:17 GMT 39.652313 -100.272949 37,000 93 497 0
2021-09-24 21:01:05 GMT 39.653595 -100.303268 37,000 93 497 0
2021-09-24 21:00:55 GMT 39.654919 -100.334778 37,000 93 497 0
2021-09-24 21:00:47 GMT 39.655838 -100.356468 37,000 93 496 0
2021-09-24 21:00:43 GMT 39.656570 -100.374260 37,000 93 496 0
2021-09-24 21:00:36 GMT 39.657211 -100.388824 37,000 93 496 -64
2021-09-24 21:00:33 GMT 39.657623 -100.399216 37,000 93 496 0
2021-09-24 21:00:23 GMT 39.658951 -100.430923 37,000 93 495 0
2021-09-24 21:00:15 GMT 39.659729 -100.451103 37,000 93 495 0
2021-09-24 21:00:11 GMT 39.660366 -100.466492 37,000 93 495 0
2021-09-24 21:00:02 GMT 39.661377 -100.491646 37,000 93 495 0
2021-09-24 20:59:52 GMT 39.662704 -100.524246 37,000 92 495 0
2021-09-24 20:59:45 GMT 39.663300 -100.539673 37,000 92 495 0
2021-09-24 20:59:40 GMT 39.663895 -100.555351 37,000 92 495 0
2021-09-24 20:59:36 GMT 39.664444 -100.569565 37,000 92 495 0
2021-09-24 20:59:31 GMT 39.665066 -100.586731 37,000 92 495 -64
2021-09-24 20:59:26 GMT 39.665531 -100.598267 37,025 92 495 0
2021-09-24 20:59:19 GMT 39.666325 -100.618042 37,000 92 494 0
2021-09-24 20:59:15 GMT 39.666733 -100.628433 37,025 92 494 0
2021-09-24 20:59:08 GMT 39.667625 -100.650879 37,000 92 494 0
2021-09-24 20:59:05 GMT 39.667953 -100.660095 37,000 92 494 0
2021-09-24 20:58:58 GMT 39.668930 -100.684624 37,000 92 494 0
2021-09-24 20:58:55 GMT 39.669163 -100.690552 37,000 92 494 0
2021-09-24 20:58:48 GMT 39.670002 -100.711792 37,000 92 494 0
2021-09-24 20:58:34 GMT 39.671677 -100.755554 37,000 92 494 0
2021-09-24 20:58:25 GMT 39.672546 -100.778900 37,000 92 494 0
2021-09-24 20:58:15 GMT 39.673691 -100.809654 37,000 92 494 0
2021-09-24 20:58:06 GMT 39.674789 -100.838013 37,000 92 494 0
2021-09-24 20:57:52 GMT 39.676117 -100.875275 37,000 92 493 0
2021-09-24 20:57:44 GMT 39.677124 -100.902077 37,000 92 493 0
2021-09-24 20:57:30 GMT 39.678520 -100.940796 37,000 92 493 0
2021-09-24 20:57:19 GMT 39.679684 -100.971741 37,000 92 493 0
2021-09-24 20:57:11 GMT 39.680660 -100.999207 37,000 92 493 0
2021-09-24 20:57:01 GMT 39.681641 -101.026367 37,000 92 493 0
2021-09-24 20:56:51 GMT 39.682755 -101.057976 37,000 92 494 64
2021-09-24 20:56:40 GMT 39.684013 -101.092224 37,000 92 494 0
2021-09-24 20:56:30 GMT 39.684906 -101.117928 37,000 92 494 0
2021-09-24 20:56:20 GMT 39.686050 -101.151360 37,000 92 494 -64
2021-09-24 20:56:09 GMT 39.687084 -101.180847 37,000 92 493 0
2021-09-24 20:55:57 GMT 39.688477 -101.221039 37,000 92 493 0
2021-09-24 20:55:44 GMT 39.689602 -101.254700 37,000 92 493 0
2021-09-24 20:55:36 GMT 39.690437 -101.280029 37,000 92 493 0
2021-09-24 20:55:25 GMT 39.691463 -101.310120 37,000 92 492 0
2021-09-24 20:55:17 GMT 39.692299 -101.335449 37,000 92 492 0
2021-09-24 20:55:14 GMT 39.692596 -101.344276 37,000 92 492 0
2021-09-24 20:55:07 GMT 39.693237 -101.364876 37,000 92 492 -64
2021-09-24 20:55:02 GMT 39.693787 -101.381058 37,000 92 492 -64
2021-09-24 20:54:51 GMT 39.694702 -101.409302 37,000 92 491 0
2021-09-24 20:54:42 GMT 39.695652 -101.440430 37,025 92 491 0
2021-09-24 20:54:30 GMT 39.696716 -101.473312 37,000 92 490 0
2021-09-24 20:54:21 GMT 39.697586 -101.501793 37,000 92 490 64
2021-09-24 20:54:11 GMT 39.698490 -101.530579 37,000 92 490 64
2021-09-24 20:54:01 GMT 39.699375 -101.559631 37,000 92 490 0
2021-09-24 20:53:58 GMT 39.699554 -101.564903 37,000 92 490 0
2021-09-24 20:53:48 GMT 39.700493 -101.598328 37,000 92 490 0
2021-09-24 20:53:37 GMT 39.701332 -101.625610 37,000 92 490 0
2021-09-24 20:53:27 GMT 39.702309 -101.657654 37,000 92 491 0
2021-09-24 20:53:16 GMT 39.703239 -101.690247 37,000 92 491 0
2021-09-24 20:53:05 GMT 39.704216 -101.722595 37,000 92 491 0
2021-09-24 20:52:57 GMT 39.704964 -101.748474 37,000 92 491 0
2021-09-24 20:52:54 GMT 39.705147 -101.754028 37,000 92 491 0
2021-09-24 20:52:44 GMT 39.705986 -101.783752 37,000 92 492 0
2021-09-24 20:52:34 GMT 39.706871 -101.814697 37,000 92 492 0
2021-09-24 20:52:23 GMT 39.707756 -101.846252 37,000 92 493 0
2021-09-24 20:52:11 GMT 39.708755 -101.879921 37,000 92 493 0
2021-09-24 20:52:02 GMT 39.709579 -101.909775 37,000 92 494 -64
2021-09-24 20:51:50 GMT 39.710495 -101.943153 37,000 92 494 0
2021-09-24 20:51:40 GMT 39.711342 -101.973328 37,000 92 494 64
2021-09-24 20:51:35 GMT 39.711803 -101.989319 37,000 91 494 0
2021-09-24 20:51:31 GMT 39.712086 -102.000854 37,000 91 494 0
2021-09-24 20:51:28 GMT 39.712223 -102.005859 37,000 91 494 0
2021-09-24 20:51:25 GMT 39.712555 -102.018265 37,000 91 494 -64
2021-09-24 20:51:19 GMT 39.713013 -102.036362 37,025 91 494 -64
2021-09-24 20:51:14 GMT 39.713379 -102.049675 37,025 91 494 -64
2021-09-24 20:51:08 GMT 39.713856 -102.068298 37,025 91 494 64
2021-09-24 20:51:04 GMT 39.714180 -102.080750 37,000 91 494 256
2021-09-24 20:50:58 GMT 39.714645 -102.098755 36,950 91 493 832
2021-09-24 20:50:53 GMT 39.715027 -102.114395 36,850 91 492 896
2021-09-24 20:50:48 GMT 39.715393 -102.128250 36,800 91 492 832
2021-09-24 20:50:45 GMT 39.715485 -102.132370 36,800 91 492 832
2021-09-24 20:50:41 GMT 39.715942 -102.148849 36,700 91 491 896
2021-09-24 20:50:36 GMT 39.716309 -102.164131 36,625 91 491 832
2021-09-24 20:50:30 GMT 39.716766 -102.182045 36,550 91 490 768
2021-09-24 20:50:24 GMT 39.717041 -102.194344 35,050 91 492 1088
2021-09-24 20:50:20 GMT 39.717392 -102.210449 36,450 91 488 768
2021-09-24 20:50:15 GMT 39.717766 -102.224731 36,375 91 487 896
2021-09-24 20:50:08 GMT 39.718231 -102.243713 36,275 91 486 1088
2021-09-24 20:50:03 GMT 39.718552 -102.257339 36,175 91 486 1152
2021-09-24 20:49:56 GMT 39.719055 -102.279129 36,025 91 485 1408
2021-09-24 20:49:51 GMT 39.719467 -102.295135 35,875 91 486 1536
2021-09-24 20:49:45 GMT 39.719952 -102.314697 35,675 91 488 1856
2021-09-24 20:49:39 GMT 39.720291 -102.327499 35,550 91 488 1856
2021-09-24 20:49:36 GMT 39.720566 -102.339195 35,425 91 489 1920
2021-09-24 20:49:32 GMT 39.720882 -102.350342 35,300 91 490 1984
2021-09-24 20:49:23 GMT 39.721581 -102.378845 35,050 91 492 1024
2021-09-24 20:49:19 GMT 39.721802 -102.388283 35,000 91 492 576
2021-09-24 20:49:14 GMT 39.722141 -102.402405 35,000 91 492 64
2021-09-24 20:49:10 GMT 39.722466 -102.415710 35,000 91 492 0
2021-09-24 20:49:03 GMT 39.722946 -102.434258 35,000 91 492 0
2021-09-24 20:49:00 GMT 39.723038 -102.439865 35,000 91 492 0
2021-09-24 20:48:57 GMT 39.723305 -102.451050 35,000 91 492 0
2021-09-24 20:48:52 GMT 39.723675 -102.467285 35,000 91 492 0
2021-09-24 20:48:49 GMT 39.723816 -102.474915 35,000 91 492 0
2021-09-24 20:48:44 GMT 39.724190 -102.490845 35,000 91 492 0
2021-09-24 20:48:40 GMT 39.724468 -102.504089 35,000 91 492 64
2021-09-24 20:48:34 GMT 39.724838 -102.519409 35,000 91 492 0
2021-09-24 20:48:28 GMT 39.725258 -102.540039 35,000 91 491 0
2021-09-24 20:48:24 GMT 39.725647 -102.557076 35,000 91 490 0
2021-09-24 20:48:16 GMT 39.725956 -102.572021 34,975 91 490 64
2021-09-24 20:48:10 GMT 39.726379 -102.591942 34,950 91 489 512
2021-09-24 20:48:06 GMT 39.726608 -102.603111 34,925 91 488 640
2021-09-24 20:48:01 GMT 39.726929 -102.618576 34,800 91 488 1344
2021-09-24 20:47:55 GMT 39.727295 -102.634933 34,700 91 488 1664
2021-09-24 20:47:48 GMT 39.727726 -102.656250 34,500 91 488 1856
2021-09-24 20:47:42 GMT 39.728100 -102.672668 34,325 91 488 1856
2021-09-24 20:47:39 GMT 39.728256 -102.680550 34,250 91 489 1728
2021-09-24 20:47:35 GMT 39.728519 -102.694885 34,100 91 489 1792
2021-09-24 20:47:28 GMT 39.728935 -102.714539 33,900 91 489 1856
2021-09-24 20:47:23 GMT 39.729218 -102.728027 33,750 91 490 1920
2021-09-24 20:47:12 GMT 39.729870 -102.760620 33,400 91 491 1984
2021-09-24 20:47:04 GMT 39.730240 -102.780640 33,175 91 492 2048
2021-09-24 20:47:01 GMT 39.730518 -102.793274 33,025 91 492 2048
2021-09-24 20:46:57 GMT 39.730751 -102.806580 32,875 91 493 2048
2021-09-24 20:46:52 GMT 39.730957 -102.816566 32,750 91 493 2176
2021-09-24 20:46:49 GMT 39.731140 -102.826363 32,650 91 493 2048
2021-09-24 20:46:43 GMT 39.731506 -102.845825 32,400 91 494 2176
2021-09-24 20:46:39 GMT 39.731781 -102.857948 32,250 91 494 2176
2021-09-24 20:46:35 GMT 39.732010 -102.871033 32,125 91 495 2240
2021-09-24 20:46:28 GMT 39.732334 -102.887024 31,875 91 496 2432
2021-09-24 20:46:20 GMT 39.732834 -102.911087 31,550 91 498 2496
2021-09-24 20:46:17 GMT 39.732971 -102.919746 31,425 91 498 2496
2021-09-24 20:46:10 GMT 39.733521 -102.946373 31,050 91 500 2624
2021-09-24 20:46:07 GMT 39.733612 -102.951149 30,975 91 501 2624
2021-09-24 20:46:04 GMT 39.733780 -102.960754 30,850 91 501 2624
2021-09-24 20:45:56 GMT 39.734344 -102.988403 30,425 91 503 2944
2021-09-24 20:45:50 GMT 39.734665 -103.005066 30,125 91 507 3200
2021-09-24 20:45:45 GMT 39.735077 -103.028473 29,800 91 512 2816
2021-09-24 20:45:41 GMT 39.735077 -103.028473 29,425 91 513 2304
2021-09-24 20:45:36 GMT 39.735443 -103.047760 29,425 91 513 2560
2021-09-24 20:45:31 GMT 39.735672 -103.061310 29,250 91 513 2176
2021-09-24 20:45:26 GMT 39.735920 -103.075439 29,100 91 514 1984
2021-09-24 20:45:23 GMT 39.736107 -103.086243 29,000 91 514 1792
2021-09-24 20:45:19 GMT 39.736359 -103.101913 28,850 91 513 1536
2021-09-24 20:45:12 GMT 39.736633 -103.120956 28,700 91 512 1600
2021-09-24 20:45:07 GMT 39.736908 -103.136604 28,550 91 511 1728
2021-09-24 20:45:02 GMT 39.737175 -103.151550 28,400 91 510 1856
2021-09-24 20:44:56 GMT 39.737503 -103.171143 28,200 91 509 1984
2021-09-24 20:44:53 GMT 39.737736 -103.185425 28,050 91 507 1728
2021-09-24 20:44:44 GMT 39.738052 -103.205864 27,850 91 508 1728
2021-09-24 20:44:41 GMT 39.738235 -103.217087 27,750 91 507 1728
2021-09-24 20:44:35 GMT 39.738602 -103.240135 27,525 91 505 1664
2021-09-24 20:44:30 GMT 39.738785 -103.250168 27,425 91 505 1792
2021-09-24 20:44:23 GMT 39.739132 -103.270386 27,175 91 504 2368
2021-09-24 20:44:19 GMT 39.739380 -103.282471 26,975 91 504 3392
2021-09-24 20:44:11 GMT 39.739830 -103.308533 26,450 91 508 3968
2021-09-24 20:44:08 GMT 39.739971 -103.316467 26,275 91 510 3648
2021-09-24 20:44:03 GMT 39.740250 -103.333344 26,000 91 513 2176
2021-09-24 20:43:59 GMT 39.740479 -103.348984 25,725 91 510 1344
2021-09-24 20:43:53 GMT 39.740662 -103.361885 25,400 91 505 1280
2021-09-24 20:43:47 GMT 39.740891 -103.377464 25,625 91 508 1408
2021-09-24 20:43:41 GMT 39.741211 -103.397530 25,475 91 506 1344
2021-09-24 20:43:36 GMT 39.741413 -103.409607 25,400 91 504 1280
2021-09-24 20:43:30 GMT 39.741692 -103.429504 25,250 91 500 1280
2021-09-24 20:43:27 GMT 39.741879 -103.441223 25,175 91 498 1216
2021-09-24 20:43:20 GMT 39.742203 -103.461426 24,925 91 489 1216
2021-09-24 20:43:16 GMT 39.742401 -103.472702 24,975 91 492 1216
2021-09-24 20:43:09 GMT 39.742767 -103.494438 24,825 91 488 1216
2021-09-24 20:43:05 GMT 39.742950 -103.506439 24,725 91 486 1216
2021-09-24 20:43:00 GMT 39.743179 -103.519753 24,650 91 483 1152
2021-09-24 20:42:56 GMT 39.743416 -103.532471 24,550 91 480 1152
2021-09-24 20:42:53 GMT 39.743462 -103.536743 24,525 91 479 1152
2021-09-24 20:42:47 GMT 39.743832 -103.558716 24,375 91 475 1088
2021-09-24 20:42:44 GMT 39.743958 -103.565552 24,325 91 471 1088
2021-09-24 20:42:36 GMT 39.744324 -103.588295 24,075 91 466 1216
2021-09-24 20:42:32 GMT 39.744484 -103.596680 24,100 91 464 1344
2021-09-24 20:42:29 GMT 39.744736 -103.609970 23,975 91 461 1856
2021-09-24 20:42:23 GMT 39.745010 -103.625137 23,800 91 459 2240
2021-09-24 20:42:14 GMT 39.745369 -103.645752 23,400 91 457 2816
2021-09-24 20:42:11 GMT 39.745556 -103.655945 23,125 91 457 2816
2021-09-24 20:42:08 GMT 39.745743 -103.668243 23,125 91 457 2816
2021-09-24 20:42:04 GMT 39.745834 -103.675354 23,000 90 457 2560
2021-09-24 20:42:01 GMT 39.745926 -103.684669 22,875 90 456 1792
2021-09-24 20:41:54 GMT 39.746155 -103.701805 22,750 91 451 1024
2021-09-24 20:41:49 GMT 39.746384 -103.715294 22,550 92 438 1152
2021-09-24 20:41:44 GMT 39.746765 -103.731567 22,575 91 441 896
2021-09-24 20:41:39 GMT 39.747044 -103.741821 22,500 92 437 1216
2021-09-24 20:41:33 GMT 39.747559 -103.756958 22,275 94 429 1152
2021-09-24 20:41:29 GMT 39.748077 -103.769867 22,275 93 428 1152
2021-09-24 20:41:23 GMT 39.749001 -103.786011 22,175 95 424 1216
2021-09-24 20:41:18 GMT 39.749977 -103.798340 22,075 96 420 1344
2021-09-24 20:41:11 GMT 39.751144 -103.811607 21,950 97 417 1600
2021-09-24 20:41:07 GMT 39.752213 -103.821960 21,825 98 412 1280
2021-09-24 20:41:04 GMT 39.753563 -103.832947 21,750 99 408 896
2021-09-24 20:41:01 GMT 39.753937 -103.836082 21,725 99 409 896
2021-09-24 20:40:58 GMT 39.755470 -103.847900 21,650 100 403 640
2021-09-24 20:40:55 GMT 39.756264 -103.853577 21,650 100 400 512
2021-09-24 20:40:52 GMT 39.757336 -103.861389 21,625 100 396 128
2021-09-24 20:40:44 GMT 39.759567 -103.877823 21,575 99 385 576
2021-09-24 20:40:41 GMT 39.760548 -103.885071 21,525 99 381 1024
2021-09-24 20:40:34 GMT 39.762829 -103.902527 21,375 99 375 2048
2021-09-24 20:40:31 GMT 39.763477 -103.907837 20,150 98 373 2560
2021-09-24 20:40:25 GMT 39.765060 -103.922188 20,875 97 371 3136
2021-09-24 20:40:22 GMT 39.765900 -103.930115 20,725 97 370 3008
2021-09-24 20:40:19 GMT 39.766251 -103.933411 20,650 97 371 3072
2021-09-24 20:40:14 GMT 39.768227 -103.953003 20,325 97 369 2688
2021-09-24 20:40:11 GMT 39.768227 -103.953003 20,225 97 368 2560
2021-09-24 20:40:08 GMT 39.768692 -103.957642 20,150 97 368 2560
2021-09-24 20:40:02 GMT 39.770691 -103.978310 19,925 97 363 1792
2021-09-24 20:39:58 GMT 39.770691 -103.978310 19,825 96 360 1792
2021-09-24 20:39:52 GMT 39.771996 -103.992615 19,625 96 355 1664
2021-09-24 20:39:49 GMT 39.772614 -103.998970 19,450 97 352 1792
2021-09-24 20:39:40 GMT 39.774418 -104.016724 19,275 97 347 2304
2021-09-24 20:39:37 GMT 39.775394 -104.026001 19,075 98 344 3200
2021-09-24 20:39:31 GMT 39.776653 -104.037048 18,775 98 344 3456
2021-09-24 20:39:26 GMT 39.777630 -104.045837 18,125 97 347 3904
2021-09-24 20:39:20 GMT 39.779160 -104.060051 18,050 97 349 3840
2021-09-24 20:39:17 GMT 39.779819 -104.066040 17,875 97 349 3840
2021-09-24 20:39:10 GMT 39.781403 -104.081245 17,425 97 350 3584
2021-09-24 20:39:05 GMT 39.782146 -104.088745 17,200 97 351 3392
2021-09-24 20:38:53 GMT 39.784752 -104.113892 16,600 97 348 2816
2021-09-24 20:38:47 GMT 39.786289 -104.128296 16,275 98 344 2880
2021-09-24 20:38:44 GMT 39.786800 -104.132629 16,175 98 343 2944
2021-09-24 20:38:34 GMT 39.789093 -104.152718 15,700 98 340 3328
2021-09-24 20:38:27 GMT 39.791016 -104.169258 15,175 98 339 3520
2021-09-24 20:38:24 GMT 39.791702 -104.175529 14,975 98 339 3520
2021-09-24 20:38:19 GMT 39.792618 -104.183769 14,750 98 338 3520
2021-09-24 20:38:15 GMT 39.793552 -104.191833 13,900 98 334 3136
2021-09-24 20:38:07 GMT 39.795181 -104.206459 14,100 98 334 3136
2021-09-24 20:38:04 GMT 39.796112 -104.214478 13,900 98 334 3136
2021-09-24 20:37:59 GMT 39.797150 -104.224014 13,650 98 333 2944
2021-09-24 20:37:53 GMT 39.798393 -104.235474 13,375 98 330 2688
2021-09-24 20:37:49 GMT 39.799530 -104.245445 13,125 98 326 2624
2021-09-24 20:37:42 GMT 39.800903 -104.257210 12,900 98 319 2944
2021-09-24 20:37:36 GMT 39.802303 -104.269165 12,550 98 318 3008
2021-09-24 20:37:32 GMT 39.803238 -104.277451 12,325 98 316 3136
2021-09-24 20:37:28 GMT 39.803970 -104.283661 12,125 98 314 3264
2021-09-24 20:37:22 GMT 39.805283 -104.295959 11,750 97 312 3520
2021-09-24 20:37:17 GMT 39.805935 -104.302490 11,375 96 311 3904
2021-09-24 20:37:13 GMT 39.806957 -104.313049 11,150 96 311 3904
2021-09-24 20:37:10 GMT 39.807220 -104.316025 11,075 96 311 3840
2021-09-24 20:37:06 GMT 39.807888 -104.324585 10,625 94 311 3520
2021-09-24 20:37:01 GMT 39.808495 -104.334778 10,475 93 309 3264
2021-09-24 20:36:57 GMT 39.808819 -104.341248 10,300 93 308 2944
2021-09-24 20:36:53 GMT 39.809147 -104.349976 10,100 92 307 2176
2021-09-24 20:36:50 GMT 39.809372 -104.355850 9,975 92 307 2176
2021-09-24 20:36:46 GMT 39.809521 -104.360657 9,900 92 307 1920
2021-09-24 20:36:43 GMT 39.809750 -104.366516 9,800 94 305 1152
2021-09-24 20:36:40 GMT 39.810219 -104.374023 9,725 96 305 832
2021-09-24 20:36:34 GMT 39.811340 -104.384689 9,700 100 304 128
2021-09-24 20:36:28 GMT 39.812870 -104.394348 9,700 103 302 128
2021-09-24 20:36:25 GMT 39.813675 -104.398537 9,675 104 302 192
2021-09-24 20:36:21 GMT 39.815895 -104.407898 9,675 109 301 64
2021-09-24 20:36:18 GMT 39.817154 -104.412331 9,675 111 302 -128
2021-09-24 20:36:15 GMT 39.818176 -104.415710 9,675 112 301 64
2021-09-24 20:36:10 GMT 39.821156 -104.424927 9,700 112 302 -64
2021-09-24 20:36:07 GMT 39.823059 -104.430603 9,700 113 304 -64
2021-09-24 20:36:03 GMT 39.824982 -104.436516 9,700 113 305 -256
2021-09-24 20:36:00 GMT 39.827255 -104.443237 9,725 113 307 -384
2021-09-24 20:35:55 GMT 39.829285 -104.449348 9,750 113 310 -832
2021-09-24 20:35:49 GMT 39.837429 -104.467117 9,200 111 246 2528
2021-09-24 20:35:48 GMT 39.837841 -104.468498 9,200 111 246 2528
2021-09-24 20:35:46 GMT 39.838661 -104.471252 9,200 111 246 3168
2021-09-24 20:35:45 GMT 39.839069 -104.472633 9,200 111 246 3168
2021-09-24 20:35:43 GMT 39.839890 -104.475388 9,200 111 246 3168
2021-09-24 20:35:42 GMT 39.840302 -104.476768 9,200 111 246 3168
2021-09-24 20:35:41 GMT 39.840710 -104.478142 9,200 111 246 3168
2021-09-24 20:35:40 GMT 39.841122 -104.479523 9,200 111 246 3168
2021-09-24 20:35:38 GMT 39.841949 -104.482277 9,200 111 246 3168
2021-09-24 20:35:37 GMT 39.842361 -104.483658 9,200 111 246 3168
2021-09-24 20:35:36 GMT 39.842770 -104.485039 9,200 111 246 3168
2021-09-24 20:35:34 GMT 39.843590 -104.487793 9,200 111 246 3168
2021-09-24 20:35:33 GMT 39.844002 -104.489166 9,200 111 246 3168
2021-09-24 20:35:32 GMT 39.844818 -104.491928 9,200 111 246 3168
2021-09-24 20:35:30 GMT 39.845230 -104.493301 9,200 111 246 3168
2021-09-24 20:35:29 GMT 39.845638 -104.494682 9,200 111 246 3168
2021-09-24 20:35:27 GMT 39.846458 -104.497437 9,200 111 246 3168
2021-09-24 20:35:26 GMT 39.846870 -104.498817 9,200 111 246 3168
2021-09-24 20:35:25 GMT 39.847691 -104.501572 9,200 111 246 3168
2021-09-24 20:35:23 GMT 39.848099 -104.502953 9,200 111 246 3168
2021-09-24 20:35:22 GMT 39.848511 -104.504333 9,200 111 246 3168
2021-09-24 20:35:21 GMT 39.849331 -104.507088 9,200 111 246 3168
2021-09-24 20:35:19 GMT 39.849739 -104.508469 9,200 111 246 3168
2021-09-24 20:35:18 GMT 39.850288 -104.510368 9,000 111 235 3168
2021-09-24 20:35:17 GMT 39.851089 -104.513000 9,000 111 235 3168
2021-09-24 20:35:15 GMT 39.851501 -104.514313 9,000 111 235 3168
2021-09-24 20:35:14 GMT 39.851898 -104.515617 9,000 111 235 3168
2021-09-24 20:35:12 GMT 39.852501 -104.518089 8,700 112 247 3168
2021-09-24 20:35:10 GMT 39.853390 -104.520828 8,700 112 247 3168
2021-09-24 20:35:08 GMT 39.854240 -104.523361 8,500 112 252 3168
2021-09-24 20:35:07 GMT 39.855148 -104.526161 8,500 112 252 3168
2021-09-24 20:35:05 GMT 39.855598 -104.527557 8,500 112 252 3168
2021-09-24 20:35:04 GMT 39.856049 -104.528870 8,000 112 257 3168
2021-09-24 20:35:03 GMT 39.856949 -104.531776 8,000 112 253 3168
2021-09-24 20:35:01 GMT 39.857391 -104.533211 8,000 112 251 3168
2021-09-24 20:35:00 GMT 39.858311 -104.535973 8,000 112 252 3168
2021-09-24 20:34:58 GMT 39.858761 -104.537361 8,000 112 252 3168
2021-09-24 20:34:57 GMT 39.859211 -104.538742 8,000 112 254 3168
2021-09-24 20:34:55 GMT 39.860168 -104.541451 7,700 111 256 3168
2021-09-24 20:34:54 GMT 39.860619 -104.542870 7,700 111 256 3168
2021-09-24 20:34:53 GMT 39.861080 -104.544296 7,700 112 254 3168
2021-09-24 20:34:51 GMT 39.862000 -104.547211 7,700 112 248 3168
2021-09-24 20:34:50 GMT 39.862438 -104.548569 7,500 113 249 3168
2021-09-24 20:34:48 GMT 39.863338 -104.551262 7,500 114 251 3168
2021-09-24 20:34:47 GMT 39.863800 -104.552689 7,500 115 249 3168
2021-09-24 20:34:46 GMT 39.864712 -104.555321 7,300 117 253 416
2021-09-24 20:34:44 GMT 39.865200 -104.556679 7,300 118 253 416
2021-09-24 20:34:42 GMT 39.866261 -104.559479 7,300 119 245 416
2021-09-24 20:34:41 GMT 39.866741 -104.560791 7,000 120 247 416
2021-09-24 20:34:40 GMT 39.867321 -104.562149 7,000 121 242 416
2021-09-24 20:34:38 GMT 39.868401 -104.564598 7,000 122 246 416
2021-09-24 20:34:37 GMT 39.868950 -104.565880 7,000 122 245 416
2021-09-24 20:34:36 GMT 39.869530 -104.567169 7,000 122 242 416
2021-09-24 20:34:35 GMT 39.870079 -104.568390 7,000 122 242 416
2021-09-24 20:34:33 GMT 39.871799 -104.572037 6,900 118 237 416
2021-09-24 20:34:31 GMT 39.872330 -104.573257 6,900 117 235 416
2021-09-24 20:34:30 GMT 39.873390 -104.575768 6,900 113 226 416
2021-09-24 20:34:29 GMT 39.873852 -104.577003 6,900 111 224 416
2021-09-24 20:34:27 GMT 39.874271 -104.578194 6,850 109 223 0
2021-09-24 20:34:26 GMT 39.874699 -104.579437 6,850 106 218 0
2021-09-24 20:34:25 GMT 39.875351 -104.581947 6,800 102 212 2880
2021-09-24 20:34:23 GMT 39.875599 -104.583183 6,800 101 210 2880
2021-09-24 20:34:22 GMT 39.875832 -104.584442 6,800 99 207 2880
2021-09-24 20:34:20 GMT 39.876228 -104.586899 6,800 95 203 2880
2021-09-24 20:34:19 GMT 39.876389 -104.588089 6,800 94 202 2880
2021-09-24 20:34:18 GMT 39.876492 -104.589272 6,775 93 203 2880
2021-09-24 20:34:17 GMT 39.876591 -104.590492 6,750 91 200 2880
2021-09-24 20:34:16 GMT 39.876671 -104.592903 6,675 91 198 2880
2021-09-24 20:34:14 GMT 39.876690 -104.594147 6,675 90 192 2880
2021-09-24 20:34:13 GMT 39.876701 -104.595306 6,500 91 192 2880
2021-09-24 20:34:11 GMT 39.876759 -104.597588 6,500 91 193 2880
2021-09-24 20:34:10 GMT 39.876808 -104.598793 6,500 90 189 2880
2021-09-24 20:34:08 GMT 39.876808 -104.601067 6,400 90 187 2880
2021-09-24 20:34:07 GMT 39.876831 -104.602219 6,400 90 184 2880
2021-09-24 20:34:05 GMT 39.876831 -104.604424 6,300 91 185 2880
2021-09-24 20:34:04 GMT 39.876839 -104.605530 6,250 91 185 2880
2021-09-24 20:34:03 GMT 39.876911 -104.607758 6,200 89 186 2880
2021-09-24 20:34:01 GMT 39.876911 -104.608917 6,150 90 181 2880
2021-09-24 20:34:00 GMT 39.876888 -104.609993 6,100 90 185 2880
2021-09-24 20:33:58 GMT 39.876930 -104.612190 6,000 90 189 2880
2021-09-24 20:33:57 GMT 39.876911 -104.613373 5,950 92 185 2880
2021-09-24 20:33:56 GMT 39.876980 -104.615578 5,825 90 187 2880
2021-09-24 20:33:54 GMT 39.876991 -104.616760 5,725 91 181 2880
2021-09-24 20:33:53 GMT 39.877022 -104.617844 5,725 91 182 2880
2021-09-24 20:33:51 GMT 39.877102 -104.620010 5,475 90 182 2880
2021-09-24 20:33:50 GMT 39.877090 -104.622192 5,425 91 183 2880
2021-09-24 20:33:47 GMT 39.877129 -104.624420 5,425 91 183 2880
2021-09-24 20:33:46 GMT 39.877190 -104.626587 5,350 91 185 448
2021-09-24 20:33:44 GMT 39.877209 -104.627731 5,300 91 182 448
2021-09-24 20:33:43 GMT 39.877258 -104.628822 5,200 90 182 448
2021-09-24 20:33:41 GMT 39.877270 -104.630989 5,200 90 186 448
2021-09-24 20:33:40 GMT 39.877281 -104.632111 5,075 91 185 448
2021-09-24 20:33:39 GMT 39.877281 -104.633209 5,075 91 185 448
2021-09-24 20:33:37 GMT 39.877331 -104.635422 5,075 91 181 448
2021-09-24 20:33:36 GMT 39.877361 -104.637581 5,050 90 175 -256
2021-09-24 20:33:34 GMT 39.877380 -104.638634 5,050 90 173 -256
2021-09-24 20:33:33 GMT 39.877399 -104.639687 5,050 90 169 -256
2021-09-24 20:33:32 GMT 39.877419 -104.641701 5,075 90 164 0
2021-09-24 20:33:30 GMT 39.877411 -104.642700 5,075 90 159 0
2021-09-24 20:33:28 GMT 39.877419 -104.644592 5,075 90 152 0
2021-09-24 20:33:27 GMT 39.877449 -104.645538 5,075 90 147 0
2021-09-24 20:33:26 GMT 39.877480 -104.646461 5,075 89 141 0
2021-09-24 20:33:24 GMT 39.877449 -104.648148 5,075 90 133 -96
2021-09-24 20:33:23 GMT 39.877449 -104.648941 5,075 90 131 -96
2021-09-24 20:33:21 GMT 39.877441 -104.650520 5,075 91 123 -96
2021-09-24 20:33:20 GMT 39.877449 -104.651291 5,075 91 118 -96
2021-09-24 20:33:19 GMT 39.877480 -104.652702 0 90 110
2021-09-24 20:33:17 GMT 39.877491 -104.653374 0 90 105
2021-09-24 20:33:15 GMT 39.877499 -104.654640 0 90 95
2021-09-24 20:33:14 GMT 39.877522 -104.655220 0 89 90
2021-09-24 20:33:13 GMT 39.877499 -104.655792 0 90 84
2021-09-24 20:33:11 GMT 39.877522 -104.656776 0 90 77
2021-09-24 20:33:09 GMT 39.877499 -104.657700 0 91 67
2021-09-24 20:33:08 GMT 39.877510 -104.658142 0 90 60
2021-09-24 20:33:07 GMT 39.877510 -104.658546 0 90 53
2021-09-24 20:33:05 GMT 39.877522 -104.659210 0 91 44
2021-09-24 20:33:03 GMT 39.877541 -104.659782 0 91 35
2021-09-24 20:33:02 GMT 39.877529 -104.660011 0 91 30
2021-09-24 20:33:01 GMT 39.877541 -104.660431 0 93 21
2021-09-24 20:32:59 GMT 39.877541 -104.660583 0 93 18
2021-09-24 20:32:58 GMT 39.877560 -104.660713 0 91 16
2021-09-24 20:32:57 GMT 39.877571 -104.660812 0 86 15
2021-09-24 20:32:55 GMT 39.877560 -104.661011 0 88 12
2021-09-24 20:32:54 GMT 39.877560 -104.661087 0 86 10
2021-09-24 20:32:53 GMT 39.877548 -104.661232 0 91 10
2021-09-24 20:32:51 GMT 39.877548 -104.661278 0 92 10
2021-09-24 20:32:50 GMT 39.877548 -104.661346 0 93 8
2021-09-24 20:32:48 GMT 39.877548 -104.661469 0 93 7
2021-09-24 20:32:46 GMT 39.877548 -104.661583 0 101 6
2021-09-24 20:32:45 GMT 39.877571 -104.661621 0 94 5
2021-09-24 20:32:44 GMT 39.877571 -104.661636 0 94 6
2021-09-24 20:32:42 GMT 39.877579 -104.661720 0 91 6
2021-09-24 20:32:41 GMT 39.877571 -104.661774 0 94 3
2021-09-24 20:32:39 GMT 39.877579 -104.661797 0 114 6
2021-09-24 20:32:38 GMT 39.877548 -104.661827 0 108 5
2021-09-24 20:32:36 GMT 39.877571 -104.661888 0 77 6
2021-09-24 20:32:35 GMT 39.877579 -104.661942 0 60 7
2021-09-24 20:32:34 GMT 39.877571 -104.661987 0 37 5
2021-09-24 20:32:32 GMT 39.877571 -104.662041 0 24 5
2021-09-24 20:32:30 GMT 39.877529 -104.662079 0 5 5
2021-09-24 20:32:29 GMT 39.877522 -104.662079 0 1 5
2021-09-24 20:32:27 GMT 39.877460 -104.662102 0 352 5
2021-09-24 20:32:26 GMT 39.877441 -104.662086 0 359 6
2021-09-24 20:32:25 GMT 39.877419 -104.662071 0 21 7
2021-09-24 20:32:24 GMT 39.877338 -104.662079 0 11 5
2021-09-24 20:32:22 GMT 39.877331 -104.662109 0 357 8
2021-09-24 20:32:21 GMT 39.877281 -104.662102 0 359 7
2021-09-24 20:32:20 GMT 39.877209 -104.662109 0 354 5
2021-09-24 20:32:18 GMT 39.877201 -104.662109 0 357 7
2021-09-24 20:32:16 GMT 39.877129 -104.662086 0 4 6
2021-09-24 20:32:15 GMT 39.877102 -104.662109 0 357 6
2021-09-24 20:32:14 GMT 39.877090 -104.662102 0 3 8
2021-09-24 20:32:12 GMT 39.877010 -104.662117 0 349 6
2021-09-24 20:32:11 GMT 39.876991 -104.662117 0 349 7
2021-09-24 20:32:09 GMT 39.876911 -104.662079 0 7 5
2021-09-24 20:32:08 GMT 39.876900 -104.662079 0 2 7
2021-09-24 20:32:06 GMT 39.876831 -104.662079 0 22 4
2021-09-24 20:32:05 GMT 39.876808 -104.662086 0 12 5
2021-09-24 20:32:04 GMT 39.876801 -104.662102 0 357 6
2021-09-24 20:32:02 GMT 39.876740 -104.662117 0 356 4
2021-09-24 20:32:01 GMT 39.876709 -104.662109 0 8 3
2021-09-24 20:32:00 GMT 39.876709 -104.662079 0 15 4
2021-09-24 20:31:59 GMT 39.876671 -104.662079 0 9 4
2021-09-24 20:31:57 GMT 39.876659 -104.662109 0 351 3
2021-09-24 20:31:56 GMT 39.876640 -104.662117 0 349 3
2021-09-24 20:31:54 GMT 39.876621 -104.662109 0 3 3
2021-09-24 20:31:53 GMT 39.876598 -104.662109 0 6 4
2021-09-24 20:31:51 GMT 39.876549 -104.662117 0 6 1
2021-09-24 20:31:50 GMT 39.876572 -104.662079 0 6 2
2021-09-24 20:31:48 GMT 39.876560 -104.662102 0 5 2
2021-09-24 20:31:46 GMT 39.876511 -104.662117 0 5 0
2021-09-24 20:31:44 GMT 39.876511 -104.662102 0 5 1
2021-09-24 20:31:43 GMT 39.876511 -104.662109 0 5 0
2021-09-24 20:31:41 GMT 39.876480 -104.662117 0 5 0
2021-09-24 20:31:40 GMT 39.876469 -104.662117 0 5 0
2021-09-24 20:31:39 GMT 39.876480 -104.662117 0 5 0
2021-09-24 20:31:37 GMT 39.876499 -104.662117 0 4 2
2021-09-24 20:31:36 GMT 39.876492 -104.662109 0 4 3
2021-09-24 20:31:35 GMT 39.876480 -104.662117 0 4 3
2021-09-24 20:31:34 GMT 39.876461 -104.662117 0 5 4
2021-09-24 20:31:32 GMT 39.876438 -104.662117 0 357 3
2021-09-24 20:31:31 GMT 39.876431 -104.662140 0 346 4
2021-09-24 20:31:29 GMT 39.876369 -104.662117 0 355 3
2021-09-24 20:31:28 GMT 39.876369 -104.662109 0 358 5
2021-09-24 20:31:26 GMT 39.876339 -104.662102 0 7 6
2021-09-24 20:31:25 GMT 39.876308 -104.662109 0 0 7
2021-09-24 20:31:23 GMT 39.876251 -104.662109 0 1 8
2021-09-24 20:31:22 GMT 39.876202 -104.662109 0 358 6
2021-09-24 20:31:21 GMT 39.876179 -104.662132 0 356 8
2021-09-24 20:31:20 GMT 39.876148 -104.662109 0 0 9
2021-09-24 20:31:18 GMT 39.876080 -104.662102 0 5 10
2021-09-24 20:31:17 GMT 39.875992 -104.662117 0 359 11
2021-09-24 20:31:15 GMT 39.875931 -104.662132 0 356 9
2021-09-24 20:31:13 GMT 39.875858 -104.662109 0 2 11
2021-09-24 20:31:12 GMT 39.875801 -104.662117 0 4 11
2021-09-24 20:31:11 GMT 39.875759 -104.662109 0 4 12
2021-09-24 20:31:09 GMT 39.875641 -104.662117 0 5 11
2021-09-24 20:31:08 GMT 39.875599 -104.662132 0 0 12
2021-09-24 20:31:06 GMT 39.875481 -104.662148 0 353 11
2021-09-24 20:31:05 GMT 39.875431 -104.662132 0 2 11
2021-09-24 20:31:04 GMT 39.875381 -104.662117 0 359 12
2021-09-24 20:31:03 GMT 39.875278 -104.662117 0 4 14
2021-09-24 20:31:00 GMT 39.875149 -104.662140 0 357 13
2021-09-24 20:30:59 GMT 39.875092 -104.662132 0 1 15
2021-09-24 20:30:58 GMT 39.875031 -104.662140 0 0 15
2021-09-24 20:30:57 GMT 39.874950 -104.662148 0 354 15
2021-09-24 20:30:55 GMT 39.874828 -104.662132 0 359 16
2021-09-24 20:30:53 GMT 39.874680 -104.662140 0 358 15
2021-09-24 20:30:52 GMT 39.874599 -104.662132 0 358 15
2021-09-24 20:30:51 GMT 39.874538 -104.662117 0 2 17
2021-09-24 20:30:50 GMT 39.874458 -104.662140 0 357 16
2021-09-24 20:30:48 GMT 39.874310 -104.662117 0 7 16
2021-09-24 20:30:47 GMT 39.874260 -104.662163 0 358 19
2021-09-24 20:30:45 GMT 39.874069 -104.662148 0 353 19
2021-09-24 20:30:44 GMT 39.873981 -104.662132 0 356 18
2021-09-24 20:30:42 GMT 39.873829 -104.662117 0 0 20
2021-09-24 20:30:41 GMT 39.873749 -104.662109 0 5 21
2021-09-24 20:30:40 GMT 39.873531 -104.662140 0 358 20
2021-09-24 20:30:38 GMT 39.873459 -104.662170 0 351 22
2021-09-24 20:30:37 GMT 39.873249 -104.662086 0 9 19
2021-09-24 20:30:36 GMT 39.873180 -104.662140 0 1 22
2021-09-24 20:30:34 GMT 39.872990 -104.662148 0 359 23
2021-09-24 20:30:33 GMT 39.872879 -104.662132 0 4 24
2021-09-24 20:30:31 GMT 39.872662 -104.662178 0 355 22
2021-09-24 20:30:29 GMT 39.872551 -104.662163 0 357 21
2021-09-24 20:30:28 GMT 39.872452 -104.662132 0 4 23
2021-09-24 20:30:27 GMT 39.872341 -104.662163 0 1 22
2021-09-24 20:30:26 GMT 39.872238 -104.662170 0 357 23
2021-09-24 20:30:24 GMT 39.872028 -104.662163 0 0 25
2021-09-24 20:30:23 GMT 39.871910 -104.662178 0 357 24
2021-09-24 20:30:22 GMT 39.871689 -104.662132 0 7 23
2021-09-24 20:30:20 GMT 39.871590 -104.662163 0 2 23
2021-09-24 20:30:18 GMT 39.871361 -104.662193 0 357 22
2021-09-24 20:30:17 GMT 39.871262 -104.662170 0 2 22
2021-09-24 20:30:16 GMT 39.871151 -104.662178 0 1 21
2021-09-24 20:30:14 GMT 39.870960 -104.662201 0 356 23
2021-09-24 20:30:13 GMT 39.870739 -104.662178 0 357 21
2021-09-24 20:30:11 GMT 39.870640 -104.662170 0 358 21
2021-09-24 20:30:10 GMT 39.870461 -104.662148 0 3 20
2021-09-24 20:30:08 GMT 39.870380 -104.662170 0 1 22
2021-09-24 20:30:07 GMT 39.870171 -104.662193 0 358 21
2021-09-24 20:30:05 GMT 39.870049 -104.662178 0 0 18
2021-09-24 20:30:04 GMT 39.869968 -104.662178 0 359 18
2021-09-24 20:30:03 GMT 39.869888 -104.662163 0 5 20
2021-09-24 20:30:01 GMT 39.869720 -104.662193 0 359 22
2021-09-24 20:30:00 GMT 39.869518 -104.662170 0 1 21
2021-09-24 20:29:59 GMT 39.869411 -104.662163 0 4 19
2021-09-24 20:29:57 GMT 39.869350 -104.662163 0 5 22
2021-09-24 20:29:56 GMT 39.869160 -104.662201 0 357 22
2021-09-24 20:29:54 GMT 39.869061 -104.662201 0 356 24
2021-09-24 20:29:52 GMT 39.868832 -104.662170 0 6 22
2021-09-24 20:29:51 GMT 39.868740 -104.662193 0 3 22
2021-09-24 20:29:50 GMT 39.868542 -104.662216 0 358 23
2021-09-24 20:29:48 GMT 39.868431 -104.662231 0 354 23
2021-09-24 20:29:46 GMT 39.868198 -104.662163 0 5 22
2021-09-24 20:29:45 GMT 39.868099 -104.662178 0 2 22
2021-09-24 20:29:44 GMT 39.868011 -104.662178 0 4 24
2021-09-24 20:29:42 GMT 39.867790 -104.662193 0 4 24
2021-09-24 20:29:41 GMT 39.867680 -104.662216 0 1 24
2021-09-24 20:29:39 GMT 39.867451 -104.662231 0 358 22
2021-09-24 20:29:38 GMT 39.867359 -104.662216 0 359 23
2021-09-24 20:29:36 GMT 39.867149 -104.662216 0 359 24
2021-09-24 20:29:35 GMT 39.867031 -104.662201 0 1 24
2021-09-24 20:29:33 GMT 39.866810 -104.662209 0 2 23
2021-09-24 20:29:32 GMT 39.866619 -104.662216 0 0 25
2021-09-24 20:29:30 GMT 39.866501 -104.662247 0 355 26
2021-09-24 20:29:29 GMT 39.866390 -104.662239 0 355 26
2021-09-24 20:29:27 GMT 39.866138 -104.662170 0 9 23
2021-09-24 20:29:26 GMT 39.866039 -104.662193 0 8 24
2021-09-24 20:29:24 GMT 39.865822 -104.662247 0 358 22
2021-09-24 20:29:23 GMT 39.865700 -104.662262 0 357 21
2021-09-24 20:29:22 GMT 39.865608 -104.662247 0 357 22
2021-09-24 20:29:21 GMT 39.865410 -104.662239 0 355 22
2021-09-24 20:29:19 GMT 39.865311 -104.662209 0 1 21
2021-09-24 20:29:17 GMT 39.865082 -104.662216 0 0 17
2021-09-24 20:29:16 GMT 39.865009 -104.662209 0 2 18
2021-09-24 20:29:14 GMT 39.864841 -104.662216 0 1 20
2021-09-24 20:29:13 GMT 39.864738 -104.662231 0 359 19
2021-09-24 20:29:12 GMT 39.864571 -104.662239 0 359 20
2021-09-24 20:29:10 GMT 39.864471 -104.662239 0 0 19
2021-09-24 20:29:08 GMT 39.864288 -104.662231 0 3 18
2021-09-24 20:29:07 GMT 39.864220 -104.662247 0 0 21
2021-09-24 20:29:05 GMT 39.864010 -104.662262 0 355 18
2021-09-24 20:29:04 GMT 39.863930 -104.662209 0 8 17
2021-09-24 20:29:02 GMT 39.863789 -104.662262 0 357 20
2021-09-24 20:29:01 GMT 39.863670 -104.662247 0 356 15
2021-09-24 20:28:59 GMT 39.863548 -104.662216 0 6 19
2021-09-24 20:28:58 GMT 39.863369 -104.662262 0 0 17
2021-09-24 20:28:56 GMT 39.863289 -104.662270 0 356 18
2021-09-24 20:28:55 GMT 39.863201 -104.662247 0 1 17
2021-09-24 20:28:53 GMT 39.863041 -104.662247 0 0 18
2021-09-24 20:28:52 GMT 39.862949 -104.662270 0 354 16
2021-09-24 20:28:50 GMT 39.862808 -104.662216 0 10 15
2021-09-24 20:28:48 GMT 39.862671 -104.662270 0 0 17
2021-09-24 20:28:47 GMT 39.862579 -104.662277 0 357 16
2021-09-24 20:28:45 GMT 39.862411 -104.662247 0 2 13
2021-09-24 20:28:44 GMT 39.862370 -104.662277 0 356 16
2021-09-24 20:28:42 GMT 39.862202 -104.662247 0 357 13
2021-09-24 20:28:41 GMT 39.862148 -104.662247 0 359 15
2021-09-24 20:28:40 GMT 39.862080 -104.662270 0 353 14
2021-09-24 20:28:39 GMT 39.862011 -104.662231 0 5 14
2021-09-24 20:28:37 GMT 39.861900 -104.662277 0 352 15
2021-09-24 20:28:36 GMT 39.861820 -104.662247 0 356 14
2021-09-24 20:28:34 GMT 39.861679 -104.662247 0 357 11
2021-09-24 20:28:33 GMT 39.861649 -104.662262 0 352 13
2021-09-24 20:28:32 GMT 39.861542 -104.662216 0 2 14
2021-09-24 20:28:30 GMT 39.861488 -104.662216 0 9 15
2021-09-24 20:28:29 GMT 39.861359 -104.662231 0 30 13
2021-09-24 20:28:27 GMT 39.861290 -104.662239 0 40 12
2021-09-24 20:28:26 GMT 39.861229 -104.662262 0 54 12
2021-09-24 20:28:25 GMT 39.861160 -104.662361 0 61 12
2021-09-24 20:28:23 GMT 39.861118 -104.662422 0 69 13
2021-09-24 20:28:22 GMT 39.861069 -104.662552 0 85 11
2021-09-24 20:28:20 GMT 39.861038 -104.662621 0 92 10
2021-09-24 20:28:19 GMT 39.861038 -104.662682 0 90 10
2021-09-24 20:28:17 GMT 39.861038 -104.662811 0 91 10
2021-09-24 20:28:16 GMT 39.861038 -104.662872 0 91 12
2021-09-24 20:28:15 GMT 39.861050 -104.663010 0 89 12
2021-09-24 20:28:13 GMT 39.861061 -104.663094 0 86 11
2021-09-24 20:28:12 GMT 39.861038 -104.663200 0 96 13
2021-09-24 20:28:11 GMT 39.861038 -104.663292 0 95 13
2021-09-24 20:28:08 GMT 39.861069 -104.663437 0 84 14
2021-09-24 20:28:07 GMT 39.861050 -104.663528 0 87 12
2021-09-24 20:28:06 GMT 39.861031 -104.663689 0 96 11
2021-09-24 20:28:04 GMT 39.861050 -104.663742 0 92 12
2021-09-24 20:28:03 GMT 39.861050 -104.663811 0 91 14
2021-09-24 20:28:01 GMT 39.861061 -104.663979 0 90 14
2021-09-24 20:28:00 GMT 39.861061 -104.664070 0 90 14
2021-09-24 20:27:58 GMT 39.861069 -104.664253 0 83 12
2021-09-24 20:27:57 GMT 39.861069 -104.664307 0 85 14
2021-09-24 20:27:55 GMT 39.861038 -104.664490 0 93 13
2021-09-24 20:27:54 GMT 39.861038 -104.664558 0 93 14
2021-09-24 20:27:52 GMT 39.861050 -104.664726 0 91 15
2021-09-24 20:27:51 GMT 39.861038 -104.664841 0 98 14
2021-09-24 20:27:50 GMT 39.861038 -104.664917 0 102 14
2021-09-24 20:27:49 GMT 39.861050 -104.664993 0 102 14
2021-09-24 20:27:47 GMT 39.861080 -104.665169 0 106 14
2021-09-24 20:27:46 GMT 39.861099 -104.665329 0 114 14
2021-09-24 20:27:44 GMT 39.861149 -104.665382 0 103 15
2021-09-24 20:27:43 GMT 39.861179 -104.665550 0 104 13
2021-09-24 20:27:41 GMT 39.861210 -104.665627 0 99 13
2021-09-24 20:27:40 GMT 39.861221 -104.665710 0 99 12
2021-09-24 20:27:39 GMT 39.861240 -104.665840 0 99 13
2021-09-24 20:27:37 GMT 39.861259 -104.665939 0 98 12
2021-09-24 20:27:36 GMT 39.861301 -104.666100 0 84 11
2021-09-24 20:27:34 GMT 39.861271 -104.666138 0 92 13
2021-09-24 20:27:33 GMT 39.861279 -104.666222 0 92 13
2021-09-24 20:27:31 GMT 39.861290 -104.666382 0 87 13
2021-09-24 20:27:30 GMT 39.861279 -104.666458 0 85 13
2021-09-24 20:27:29 GMT 39.861290 -104.666519 0 84 14
2021-09-24 20:27:27 GMT 39.861259 -104.666687 0 90 14
2021-09-24 20:27:26 GMT 39.861240 -104.666779 0 98 13
2021-09-24 20:27:24 GMT 39.861252 -104.666939 0 101 13
2021-09-24 20:27:23 GMT 39.861301 -104.667068 0 93 15
2021-09-24 20:27:21 GMT 39.861320 -104.667168 0 89 14
2021-09-24 20:27:20 GMT 39.861301 -104.667259 0 91 13
2021-09-24 20:27:19 GMT 39.861320 -104.667343 0 90 13
2021-09-24 20:27:17 GMT 39.861328 -104.667488 0 88 15
2021-09-24 20:27:15 GMT 39.861320 -104.667664 0 88 16
2021-09-24 20:27:14 GMT 39.861301 -104.667747 0 94 16
2021-09-24 20:27:12 GMT 39.861252 -104.667900 0 108 20
2021-09-24 20:27:11 GMT 39.861279 -104.668053 0 103 17
2021-09-24 20:27:10 GMT 39.861328 -104.668159 0 97 15
2021-09-24 20:27:08 GMT 39.861401 -104.668320 0 85 18
2021-09-24 20:27:07 GMT 39.861401 -104.668427 0 83 17
2021-09-24 20:27:05 GMT 39.861382 -104.668663 0 84 15
2021-09-24 20:27:04 GMT 39.861340 -104.668762 0 89 14
2021-09-24 20:27:03 GMT 39.861359 -104.668831 0 82 15
2021-09-24 20:27:01 GMT 39.861271 -104.669022 0 99 13
2021-09-24 20:27:00 GMT 39.861301 -104.669083 0 98 14
2021-09-24 20:26:58 GMT 39.861370 -104.669258 0 81 13
2021-09-24 20:26:57 GMT 39.861370 -104.669342 0 79 13
2021-09-24 20:26:55 GMT 39.861420 -104.669563 0 78 12
2021-09-24 20:26:54 GMT 39.861450 -104.669609 0 78 15
2021-09-24 20:26:53 GMT 39.861370 -104.669662 0 86 15
2021-09-24 20:26:51 GMT 39.861351 -104.669861 0 84 11
2021-09-24 20:26:49 GMT 39.861271 -104.670120 0 60 8
2021-09-24 20:26:48 GMT 39.861370 -104.670341 0 58 3
2021-09-24 20:26:47 GMT 39.861351 -104.670479 0 58 3
2021-09-24 20:26:45 GMT 39.861401 -104.670387 0 58 11
2021-09-24 20:26:44 GMT 39.861408 -104.670403 0 57 13
2021-09-24 20:26:43 GMT 39.861370 -104.670471 0 57 13

Making use of Plane Finder data

You are free to use the raw flight data, aircraft information and images provided in this report for your own purposes provided the data is correctly attributed to Plane Finder. We ask that you please credit Plane Finder and link to planefinder.net in close proximity to the content.

Optionally one of the following logos (no smaller then 150x24px) can be used and must link to planefinder.net

Embedding the Plane Finder map

You are welcome to embed the Plane Finder playback map on your website to offer visitors a more interactive experience. We suggest using the following HTML code:

<iframe src="//planefinder.net/data/report/UA1172-N672UA-7700-squawk-2021-09-24/map" width="800" height="600" seamless="seamless"></iframe>

Where our data comes from

Plane Finder has a global network of data feeds and antenna radars that receive data broadcast directly from aircraft. The primary technologies used are ADS-B and MLAT. We also show feeds from the FAA and a FLARM glider feed.

Click here to find out more about the Plane Finder network.

How we collect our data